Observation data for Tahoka on 07/02/2020      Previous  Date  Next       Current Mesonet Observations  Soil Data  Daily Summary Page  Observations in Plain Language
KTAS 020500Z 18014KT 25/15 A2998 RMK A01 T02510148  RH  053%=      5-min Rain = 0
KTAS 020501Z 19012KT 25/15 A2998 RMK A01 T02510148  RH  053%=      5-min Rain = 0
KTAS 020502Z 19011G16KT 25/15 A2998 RMK A01 T02500148  RH  053%=      5-min Rain = 0
KTAS 020503Z 19013KT 25/15 A2998 RMK A01 T02500148  RH  053%=      5-min Rain = 0
KTAS 020504Z 19014G19KT 25/15 A2998 RMK A01 T02500147  RH  053%=      5-min Rain = 0
KTAS 020505Z 19012KT 25/15 A2998 RMK A01 T02500147  RH  053%=      5-min Rain = 0
KTAS 020506Z 19011KT 25/15 A2998 RMK A01 T02500147  RH  053%=      5-min Rain = 0
KTAS 020507Z 18012KT 25/15 A2999 RMK A01 T02500147  RH  053%=      5-min Rain = 0
KTAS 020508Z 19014KT 25/15 A2998 RMK A01 T02500146  RH  053%=      5-min Rain = 0
KTAS 020509Z 18011KT 25/15 A2999 RMK A01 T02500147  RH  052%=      5-min Rain = 0
KTAS 020510Z 19012KT 25/15 A2999 RMK A01 T02500147  RH  053%=      5-min Rain = 0
KTAS 020511Z 18010KT 25/15 A2999 RMK A01 T02500147  RH  053%=      5-min Rain = 0
KTAS 020512Z 18010KT 25/15 A2999 RMK A01 T02500147  RH  053%=      5-min Rain = 0
KTAS 020513Z 18010KT 25/15 A2999 RMK A01 T02500147  RH  053%=      5-min Rain = 0
KTAS 020514Z 19011KT 25/15 A2999 RMK A01 T02490147  RH  053%=      5-min Rain = 0
KTAS 020515Z 19009KT 25/15 A2999 RMK A01 T02490148  RH  053%=      5-min Rain = 0
KTAS 020516Z 20011G16KT 25/15 A2999 RMK A01 T02490148  RH  054%=      5-min Rain = 0
KTAS 020517Z 19013KT 25/15 A2999 RMK A01 T02480148  RH  054%=      5-min Rain = 0
KTAS 020518Z 20012G17KT 25/15 A2998 RMK A01 T02480148  RH  054%=      5-min Rain = 0
KTAS 020519Z 20013KT 25/15 A2998 RMK A01 T02480149  RH  054%=      5-min Rain = 0
KTAS 020520Z 19014KT 25/15 A2999 RMK A01 T02470149  RH  054%=      5-min Rain = 0
KTAS 020521Z 19014KT 25/15 A2999 RMK A01 T02470149  RH  054%=      5-min Rain = 0
KTAS 020522Z 19014KT 25/15 A2999 RMK A01 T02470149  RH  054%=      5-min Rain = 0
KTAS 020523Z 19012G17KT 25/15 A2999 RMK A01 T02460149  RH  055%=      5-min Rain = 0
KTAS 020524Z 18014KT 25/15 A2999 RMK A01 T02460149  RH  055%=      5-min Rain = 0
KTAS 020525Z 18014KT 25/15 A2999 RMK A01 T02460149  RH  055%=      5-min Rain = 0
KTAS 020526Z 18013KT 25/15 A2998 RMK A01 T02460149  RH  055%=      5-min Rain = 0
KTAS 020527Z 19013KT 25/15 A2998 RMK A01 T02460149  RH  055%=      5-min Rain = 0
KTAS 020528Z 19015KT 25/15 A2998 RMK A01 T02450149  RH  055%=      5-min Rain = 0
KTAS 020529Z 20015KT 25/15 A2998 RMK A01 T02450149  RH  055%=      5-min Rain = 0
KTAS 020530Z 19013KT 25/15 A2998 RMK A01 T02450149  RH  055%=      5-min Rain = 0
KTAS 020531Z 19012KT 25/15 A2998 RMK A01 T02450150  RH  055%=      5-min Rain = 0
KTAS 020532Z 19011KT 25/15 A2998 RMK A01 T02450150  RH  055%=      5-min Rain = 0
KTAS 020533Z 20011KT 25/15 A2998 RMK A01 T02450150  RH  056%=      5-min Rain = 0
KTAS 020534Z 20011KT 24/15 A2998 RMK A01 T02440150  RH  056%=      5-min Rain = 0
KTAS 020535Z 20015KT 24/15 A2998 RMK A01 T02440150  RH  056%=      5-min Rain = 0
KTAS 020536Z 20013KT 24/15 A2998 RMK A01 T02440150  RH  056%=      5-min Rain = 0
KTAS 020537Z 20014KT 24/15 A2998 RMK A01 T02440150  RH  056%=      5-min Rain = 0
KTAS 020538Z 20013KT 24/15 A2998 RMK A01 T02440150  RH  056%=      5-min Rain = 0
KTAS 020539Z 21013KT 24/15 A2998 RMK A01 T02440151  RH  056%=      5-min Rain = 0
KTAS 020540Z 20014KT 24/15 A2998 RMK A01 T02440152  RH  056%=      5-min Rain = 0
KTAS 020541Z 20014KT 24/15 A2998 RMK A01 T02440152  RH  057%=      5-min Rain = 0
KTAS 020542Z 21013KT 24/15 A2998 RMK A01 T02430152  RH  057%=      5-min Rain = 0
KTAS 020543Z 21012KT 24/15 A2998 RMK A01 T02430153  RH  057%=      5-min Rain = 0
KTAS 020544Z 21010KT 24/15 A2998 RMK A01 T02430153  RH  057%=      5-min Rain = 0
KTAS 020545Z 21013KT 24/15 A2998 RMK A01 T02430153  RH  057%=      5-min Rain = 0
KTAS 020546Z 21013KT 24/15 A2998 RMK A01 T02430153  RH  057%=      5-min Rain = 0
KTAS 020547Z 21011KT 24/15 A2998 RMK A01 T02430153  RH  057%=      5-min Rain = 0
KTAS 020548Z 21010KT 24/15 A2998 RMK A01 T02430154  RH  058%=      5-min Rain = 0
KTAS 020549Z 21011KT 24/15 A2998 RMK A01 T02430154  RH  058%=      5-min Rain = 0
KTAS 020550Z 20011KT 24/15 A2998 RMK A01 T02430154  RH  058%=      5-min Rain = 0
KTAS 020551Z 20011KT 24/15 A2998 RMK A01 T02430154  RH  058%=      5-min Rain = 0
KTAS 020552Z 20011KT 24/15 A2998 RMK A01 T02430154  RH  058%=      5-min Rain = 0
KTAS 020553Z 20010KT 24/15 A2998 RMK A01 T02430154  RH  058%=      5-min Rain = 0
KTAS 020554Z 20010KT 24/15 A2998 RMK A01 T02430154  RH  058%=      5-min Rain = 0
KTAS 020555Z 19011KT 24/15 A2998 RMK A01 T02430154  RH  058%=      5-min Rain = 0
KTAS 020556Z 20013KT 24/15 A2998 RMK A01 T02420154  RH  058%=      5-min Rain = 0
KTAS 020557Z 19013KT 24/15 A2998 RMK A01 T02430154  RH  057%=      5-min Rain = 0
KTAS 020558Z 19013KT 24/15 A2998 RMK A01 T02430154  RH  057%=      5-min Rain = 0
KTAS 020559Z 20013KT 24/15 A2998 RMK A01 T02430154  RH  057%=      5-min Rain = 0
KTAS 020600Z 20012KT 24/15 A2998 RMK A01 T02430154  RH  057%=      5-min Rain = 0
KTAS 020601Z 20014KT 24/15 A2998 RMK A01 T02430154  RH  057%=      5-min Rain = 0
KTAS 020602Z 20012KT 24/15 A2998 RMK A01 T02430154  RH  057%=      5-min Rain = 0
KTAS 020603Z 20011KT 24/15 A2998 RMK A01 T02430154  RH  057%=      5-min Rain = 0
KTAS 020604Z 20010KT 24/15 A2998 RMK A01 T02430154  RH  057%=      5-min Rain = 0
KTAS 020605Z 20011KT 24/15 A2998 RMK A01 T02430154  RH  058%=      5-min Rain = 0
KTAS 020606Z 20010KT 24/15 A2998 RMK A01 T02430154  RH  058%=      5-min Rain = 0
KTAS 020607Z 20012KT 24/15 A2998 RMK A01 T02430154  RH  058%=      5-min Rain = 0
KTAS 020608Z 21010KT 24/15 A2998 RMK A01 T02430154  RH  057%=      5-min Rain = 0
KTAS 020609Z 20010KT 24/15 A2998 RMK A01 T02430154  RH  057%=      5-min Rain = 0
KTAS 020610Z 21009KT 24/15 A2998 RMK A01 T02430154  RH  057%=      5-min Rain = 0
KTAS 020611Z 20010KT 24/15 A2998 RMK A01 T02430153  RH  057%=      5-min Rain = 0
KTAS 020612Z 20009KT 24/15 A2998 RMK A01 T02430153  RH  057%=      5-min Rain = 0
KTAS 020613Z 20008KT 24/15 A2998 RMK A01 T02430153  RH  057%=      5-min Rain = 0
KTAS 020614Z 20010KT 24/15 A2998 RMK A01 T02430154  RH  057%=      5-min Rain = 0
KTAS 020615Z 20011KT 24/15 A2998 RMK A01 T02430153  RH  057%=      5-min Rain = 0
KTAS 020616Z 19012KT 24/15 A2998 RMK A01 T02430153  RH  057%=      5-min Rain = 0
KTAS 020617Z 19009KT 24/15 A2998 RMK A01 T02430153  RH  057%=      5-min Rain = 0
KTAS 020618Z 19010KT 24/15 A2998 RMK A01 T02430153  RH  057%=      5-min Rain = 0
KTAS 020619Z 19011KT 24/15 A2998 RMK A01 T02430154  RH  057%=      5-min Rain = 0
KTAS 020620Z 19010KT 24/15 A2998 RMK A01 T02430153  RH  057%=      5-min Rain = 0
KTAS 020621Z 19009KT 24/15 A2998 RMK A01 T02430153  RH  057%=      5-min Rain = 0
KTAS 020622Z 19010KT 24/15 A2998 RMK A01 T02430153  RH  057%=      5-min Rain = 0
KTAS 020623Z 18010KT 24/15 A2998 RMK A01 T02430153  RH  057%=      5-min Rain = 0
KTAS 020624Z 18010KT 24/15 A2998 RMK A01 T02430153  RH  057%=      5-min Rain = 0
KTAS 020625Z 19011KT 24/15 A2998 RMK A01 T02430152  RH  057%=      5-min Rain = 0
KTAS 020626Z 19011KT 24/15 A2998 RMK A01 T02430152  RH  057%=      5-min Rain = 0
KTAS 020627Z 18012KT 24/15 A2998 RMK A01 T02430152  RH  057%=      5-min Rain = 0
KTAS 020628Z 18011KT 24/15 A2998 RMK A01 T02440152  RH  057%=      5-min Rain = 0
KTAS 020629Z 18011KT 24/15 A2998 RMK A01 T02440153  RH  057%=      5-min Rain = 0
KTAS 020630Z 18011KT 24/15 A2998 RMK A01 T02440153  RH  057%=      5-min Rain = 0
KTAS 020631Z 17011KT 24/15 A2998 RMK A01 T02440153  RH  057%=      5-min Rain = 0
KTAS 020632Z 18011KT 24/15 A2998 RMK A01 T02440152  RH  057%=      5-min Rain = 0
KTAS 020633Z 17009KT 24/15 A2998 RMK A01 T02440153  RH  057%=      5-min Rain = 0
KTAS 020634Z 17009KT 24/15 A2998 RMK A01 T02430153  RH  057%=      5-min Rain = 0
KTAS 020635Z 18009KT 24/15 A2998 RMK A01 T02430153  RH  057%=      5-min Rain = 0
KTAS 020636Z 18009KT 24/15 A2998 RMK A01 T02430153  RH  057%=      5-min Rain = 0
KTAS 020637Z 18010KT 24/15 A2998 RMK A01 T02430153  RH  057%=      5-min Rain = 0
KTAS 020638Z 18011KT 24/15 A2997 RMK A01 T02430152  RH  057%=      5-min Rain = 0
KTAS 020639Z 17010KT 24/15 A2997 RMK A01 T02430152  RH  057%=      5-min Rain = 0
KTAS 020640Z 18009KT 24/15 A2997 RMK A01 T02430153  RH  057%=      5-min Rain = 0
KTAS 020641Z 18008KT 24/15 A2997 RMK A01 T02430153  RH  057%=      5-min Rain = 0
KTAS 020642Z 18009KT 24/15 A2997 RMK A01 T02420153  RH  057%=      5-min Rain = 0
KTAS 020643Z 18008KT 24/15 A2997 RMK A01 T02420153  RH  057%=      5-min Rain = 0
KTAS 020644Z 18007KT 24/15 A2997 RMK A01 T02420152  RH  057%=      5-min Rain = 0
KTAS 020645Z 18008KT 24/15 A2997 RMK A01 T02410152  RH  057%=      5-min Rain = 0
KTAS 020646Z 18009KT 24/15 A2997 RMK A01 T02410152  RH  057%=      5-min Rain = 0
KTAS 020647Z 18008KT 24/15 A2997 RMK A01 T02410152  RH  057%=      5-min Rain = 0
KTAS 020648Z 18007KT 24/15 A2997 RMK A01 T02410152  RH  057%=      5-min Rain = 0
KTAS 020649Z 18006KT 24/15 A2997 RMK A01 T02410152  RH  058%=      5-min Rain = 0
KTAS 020650Z 18006KT 24/15 A2997 RMK A01 T02400152  RH  058%=      5-min Rain = 0
KTAS 020651Z 18006KT 24/15 A2997 RMK A01 T02400152  RH  058%=      5-min Rain = 0
KTAS 020652Z 18006KT 24/15 A2997 RMK A01 T02400152  RH  058%=      5-min Rain = 0
KTAS 020653Z 18006KT 24/15 A2997 RMK A01 T02390152  RH  058%=      5-min Rain = 0
KTAS 020654Z 18006KT 24/15 A2997 RMK A01 T02400152  RH  058%=      5-min Rain = 0
KTAS 020655Z 18006KT 24/15 A2997 RMK A01 T02400152  RH  058%=      5-min Rain = 0
KTAS 020656Z 19006KT 24/15 A2997 RMK A01 T02390152  RH  058%=      5-min Rain = 0
KTAS 020657Z 19006KT 24/15 A2997 RMK A01 T02390152  RH  058%=      5-min Rain = 0
KTAS 020658Z 19005KT 24/15 A2997 RMK A01 T02390152  RH  058%=      5-min Rain = 0
KTAS 020659Z 19005KT 24/15 A2997 RMK A01 T02380153  RH  059%=      5-min Rain = 0
KTAS 020700Z 18005KT 24/15 A2997 RMK A01 T02380152  RH  059%=      5-min Rain = 0
KTAS 020701Z 18005KT 24/15 A2997 RMK A01 T02380153  RH  059%=      5-min Rain = 0
KTAS 020702Z 17006KT 24/15 A2997 RMK A01 T02380153  RH  059%=      5-min Rain = 0
KTAS 020703Z 18006KT 24/15 A2997 RMK A01 T02370153  RH  059%=      5-min Rain = 0
KTAS 020704Z 18006KT 24/15 A2997 RMK A01 T02370153  RH  059%=      5-min Rain = 0
KTAS 020705Z 18006KT 24/15 A2997 RMK A01 T02380153  RH  059%=      5-min Rain = 0
KTAS 020706Z 19005KT 24/15 A2997 RMK A01 T02380152  RH  059%=      5-min Rain = 0
KTAS 020707Z 19006KT 24/15 A2997 RMK A01 T02380152  RH  059%=      5-min Rain = 0
KTAS 020708Z 18006KT 24/15 A2997 RMK A01 T02370152  RH  059%=      5-min Rain = 0
KTAS 020709Z 18006KT 24/15 A2997 RMK A01 T02380153  RH  059%=      5-min Rain = 0
KTAS 020710Z 19006KT 24/15 A2997 RMK A01 T02370153  RH  059%=      5-min Rain = 0
KTAS 020711Z 20005KT 24/15 A2997 RMK A01 T02370152  RH  059%=      5-min Rain = 0
KTAS 020712Z 21006KT 24/15 A2997 RMK A01 T02370152  RH  059%=      5-min Rain = 0
KTAS 020713Z 22006KT 24/15 A2997 RMK A01 T02370153  RH  059%=      5-min Rain = 0
KTAS 020714Z 22006KT 24/15 A2997 RMK A01 T02370153  RH  059%=      5-min Rain = 0
KTAS 020715Z 22006KT 24/15 A2997 RMK A01 T02370153  RH  059%=      5-min Rain = 0
KTAS 020716Z 22007KT 24/15 A2996 RMK A01 T02370152  RH  059%=      5-min Rain = 0
KTAS 020717Z 22007KT 24/15 A2996 RMK A01 T02380152  RH  059%=      5-min Rain = 0
KTAS 020718Z 21007KT 24/15 A2997 RMK A01 T02390151  RH  058%=      5-min Rain = 0
KTAS 020719Z 21007KT 24/15 A2996 RMK A01 T02400151  RH  058%=      5-min Rain = 0
KTAS 020720Z 20007KT 24/15 A2996 RMK A01 T02400151  RH  057%=      5-min Rain = 0
KTAS 020721Z 20007KT 24/15 A2996 RMK A01 T02410151  RH  057%=      5-min Rain = 0
KTAS 020722Z 21006KT 24/15 A2996 RMK A01 T02420151  RH  057%=      5-min Rain = 0
KTAS 020723Z 21006KT 24/15 A2996 RMK A01 T02420152  RH  057%=      5-min Rain = 0
KTAS 020724Z 21006KT 24/15 A2996 RMK A01 T02420151  RH  057%=      5-min Rain = 0
KTAS 020725Z 21005KT 24/15 A2996 RMK A01 T02430150  RH  056%=      5-min Rain = 0
KTAS 020726Z 21005KT 24/15 A2996 RMK A01 T02430151  RH  056%=      5-min Rain = 0
KTAS 020727Z 22005KT 24/15 A2996 RMK A01 T02430150  RH  056%=      5-min Rain = 0
KTAS 020728Z 22004KT 24/15 A2996 RMK A01 T02430150  RH  056%=      5-min Rain = 0
KTAS 020729Z 23004KT 24/15 A2997 RMK A01 T02430150  RH  056%=      5-min Rain = 0
KTAS 020730Z 24003KT 24/15 A2997 RMK A01 T02430150  RH  056%=      5-min Rain = 0
KTAS 020731Z 26003KT 24/15 A2997 RMK A01 T02420150  RH  056%=      5-min Rain = 0
KTAS 020732Z 28002KT 24/15 A2997 RMK A01 T02420151  RH  057%=      5-min Rain = 0
KTAS 020733Z 28001KT 24/15 A2997 RMK A01 T02410151  RH  057%=      5-min Rain = 0
KTAS 020734Z 28002KT 24/15 A2997 RMK A01 T02400151  RH  057%=      5-min Rain = 0
KTAS 020735Z 28000KT 24/15 A2997 RMK A01 T02400151  RH  058%=      5-min Rain = 0
KTAS 020736Z 00000KT 24/15 A2997 RMK A01 T02400151  RH  058%=      5-min Rain = 0
KTAS 020737Z 21003KT 24/15 A2997 RMK A01 T02390151  RH  058%=      5-min Rain = 0
KTAS 020738Z 22004KT 24/15 A2997 RMK A01 T02390149  RH  057%=      5-min Rain = 0
KTAS 020739Z 21003KT 24/15 A2997 RMK A01 T02400149  RH  057%=      5-min Rain = 0
KTAS 020740Z 21006KT 24/15 A2997 RMK A01 T02410149  RH  056%=      5-min Rain = 0
KTAS 020741Z 20006KT 24/15 A2997 RMK A01 T02420149  RH  056%=      5-min Rain = 0
KTAS 020742Z 20005KT 24/15 A2997 RMK A01 T02430149  RH  056%=      5-min Rain = 0
KTAS 020743Z 20006KT 24/15 A2997 RMK A01 T02430149  RH  056%=      5-min Rain = 0
KTAS 020744Z 20006KT 24/15 A2997 RMK A01 T02440149  RH  056%=      5-min Rain = 0
KTAS 020745Z 20006KT 24/15 A2996 RMK A01 T02440149  RH  056%=      5-min Rain = 0
KTAS 020746Z 20006KT 24/15 A2996 RMK A01 T02440150  RH  056%=      5-min Rain = 0
KTAS 020747Z 20006KT 24/15 A2997 RMK A01 T02430150  RH  056%=      5-min Rain = 0
KTAS 020748Z 20006KT 24/15 A2997 RMK A01 T02430150  RH  056%=      5-min Rain = 0
KTAS 020749Z 20006KT 24/15 A2997 RMK A01 T02420150  RH  056%=      5-min Rain = 0
KTAS 020750Z 21005KT 24/15 A2997 RMK A01 T02420150  RH  057%=      5-min Rain = 0
KTAS 020751Z 22005KT 24/15 A2997 RMK A01 T02410151  RH  057%=      5-min Rain = 0
KTAS 020752Z 23005KT 24/15 A2997 RMK A01 T02410151  RH  057%=      5-min Rain = 0
KTAS 020753Z 23004KT 24/15 A2997 RMK A01 T02410151  RH  057%=      5-min Rain = 0
KTAS 020754Z 24005KT 24/15 A2997 RMK A01 T02400150  RH  057%=      5-min Rain = 0
KTAS 020755Z 23005KT 24/15 A2997 RMK A01 T02390150  RH  057%=      5-min Rain = 0
KTAS 020756Z 23005KT 24/15 A2997 RMK A01 T02390150  RH  058%=      5-min Rain = 0
KTAS 020757Z 23004KT 24/15 A2997 RMK A01 T02380150  RH  058%=      5-min Rain = 0
KTAS 020758Z 23004KT 24/15 A2997 RMK A01 T02390150  RH  058%=      5-min Rain = 0
KTAS 020759Z 23004KT 24/15 A2997 RMK A01 T02390150  RH  057%=      5-min Rain = 0
KTAS 020800Z 23003KT 24/15 A2997 RMK A01 T02390150  RH  057%=      5-min Rain = 0
KTAS 020801Z 22003KT 24/15 A2997 RMK A01 T02380150  RH  058%=      5-min Rain = 0
KTAS 020802Z 22004KT 24/15 A2997 RMK A01 T02380150  RH  058%=      5-min Rain = 0
KTAS 020803Z 22004KT 24/15 A2997 RMK A01 T02380150  RH  058%=      5-min Rain = 0
KTAS 020804Z 22005KT 24/15 A2997 RMK A01 T02390150  RH  058%=      5-min Rain = 0
KTAS 020805Z 22004KT 24/15 A2997 RMK A01 T02390150  RH  057%=      5-min Rain = 0
KTAS 020806Z 22004KT 24/15 A2997 RMK A01 T02390150  RH  058%=      5-min Rain = 0
KTAS 020807Z 23003KT 24/15 A2997 RMK A01 T02390150  RH  058%=      5-min Rain = 0
KTAS 020808Z 25003KT 24/15 A2997 RMK A01 T02390150  RH  058%=      5-min Rain = 0
KTAS 020809Z 26003KT 24/15 A2997 RMK A01 T02380150  RH  058%=      5-min Rain = 0
KTAS 020810Z 26003KT 24/15 A2997 RMK A01 T02370151  RH  058%=      5-min Rain = 0
KTAS 020811Z 26004KT 24/15 A2997 RMK A01 T02360151  RH  059%=      5-min Rain = 0
KTAS 020812Z 26003KT 24/15 A2997 RMK A01 T02360151  RH  059%=      5-min Rain = 0
KTAS 020813Z 26003KT 24/15 A2997 RMK A01 T02350151  RH  059%=      5-min Rain = 0
KTAS 020814Z 25003KT 24/15 A2997 RMK A01 T02350151  RH  060%=      5-min Rain = 0
KTAS 020815Z 24003KT 23/15 A2997 RMK A01 T02340151  RH  060%=      5-min Rain = 0
KTAS 020816Z 23003KT 23/15 A2997 RMK A01 T02330152  RH  060%=      5-min Rain = 0
KTAS 020817Z 21003KT 23/15 A2997 RMK A01 T02320152  RH  061%=      5-min Rain = 0
KTAS 020818Z 20003KT 23/15 A2997 RMK A01 T02320152  RH  061%=      5-min Rain = 0
KTAS 020819Z 19004KT 23/15 A2997 RMK A01 T02320151  RH  060%=      5-min Rain = 0
KTAS 020820Z 18004KT 23/15 A2997 RMK A01 T02330151  RH  060%=      5-min Rain = 0
KTAS 020821Z 18004KT 23/15 A2997 RMK A01 T02340151  RH  060%=      5-min Rain = 0
KTAS 020822Z 18005KT 23/15 A2997 RMK A01 T02340152  RH  060%=      5-min Rain = 0
KTAS 020823Z 19005KT 23/15 A2997 RMK A01 T02330151  RH  060%=      5-min Rain = 0
KTAS 020824Z 19005KT 23/15 A2997 RMK A01 T02330151  RH  060%=      5-min Rain = 0
KTAS 020825Z 18006KT 23/15 A2997 RMK A01 T02330151  RH  060%=      5-min Rain = 0
KTAS 020826Z 18007KT 23/15 A2997 RMK A01 T02330152  RH  060%=      5-min Rain = 0
KTAS 020827Z 17008KT 23/15 A2997 RMK A01 T02320152  RH  061%=      5-min Rain = 0
KTAS 020828Z 17008KT 23/15 A2997 RMK A01 T02330151  RH  060%=      5-min Rain = 0
KTAS 020829Z 17007KT 23/15 A2997 RMK A01 T02330152  RH  060%=      5-min Rain = 0
KTAS 020830Z 17007KT 23/15 A2997 RMK A01 T02340152  RH  060%=      5-min Rain = 0
KTAS 020831Z 17007KT 24/15 A2997 RMK A01 T02350152  RH  060%=      5-min Rain = 0
KTAS 020832Z 16010KT 24/15 A2997 RMK A01 T02350152  RH  059%=      5-min Rain = 0
KTAS 020833Z 16009KT 24/15 A2997 RMK A01 T02360151  RH  059%=      5-min Rain = 0
KTAS 020834Z 16010KT 24/15 A2997 RMK A01 T02370151  RH  058%=      5-min Rain = 0
KTAS 020835Z 16009KT 24/15 A2997 RMK A01 T02380151  RH  058%=      5-min Rain = 0
KTAS 020836Z 17009KT 24/15 A2997 RMK A01 T02390151  RH  058%=      5-min Rain = 0
KTAS 020837Z 17008KT 24/15 A2997 RMK A01 T02400151  RH  057%=      5-min Rain = 0
KTAS 020838Z 17007KT 24/15 A2997 RMK A01 T02410151  RH  057%=      5-min Rain = 0
KTAS 020839Z 18006KT 24/15 A2997 RMK A01 T02410151  RH  057%=      5-min Rain = 0
KTAS 020840Z 19006KT 24/15 A2997 RMK A01 T02410151  RH  057%=      5-min Rain = 0
KTAS 020841Z 19006KT 24/15 A2997 RMK A01 T02400151  RH  057%=      5-min Rain = 0
KTAS 020842Z 19006KT 24/15 A2998 RMK A01 T02400151  RH  058%=      5-min Rain = 0
KTAS 020843Z 19006KT 24/15 A2998 RMK A01 T02390152  RH  058%=      5-min Rain = 0
KTAS 020844Z 19006KT 24/15 A2997 RMK A01 T02380152  RH  058%=      5-min Rain = 0
KTAS 020845Z 18006KT 24/15 A2998 RMK A01 T02380152  RH  059%=      5-min Rain = 0
KTAS 020846Z 18006KT 24/15 A2998 RMK A01 T02370152  RH  059%=      5-min Rain = 0
KTAS 020847Z 18007KT 24/15 A2998 RMK A01 T02370152  RH  059%=      5-min Rain = 0
KTAS 020848Z 17007KT 24/15 A2998 RMK A01 T02370152  RH  059%=      5-min Rain = 0
KTAS 020849Z 17007KT 24/15 A2998 RMK A01 T02370152  RH  059%=      5-min Rain = 0
KTAS 020850Z 16006KT 24/15 A2998 RMK A01 T02370152  RH  059%=      5-min Rain = 0
KTAS 020851Z 16006KT 24/15 A2998 RMK A01 T02370152  RH  059%=      5-min Rain = 0
KTAS 020852Z 16007KT 24/15 A2998 RMK A01 T02360152  RH  059%=      5-min Rain = 0
KTAS 020853Z 15007KT 24/15 A2998 RMK A01 T02360152  RH  059%=      5-min Rain = 0
KTAS 020854Z 15006KT 24/15 A2998 RMK A01 T02360152  RH  059%=      5-min Rain = 0
KTAS 020855Z 15007KT 24/15 A2998 RMK A01 T02360152  RH  059%=      5-min Rain = 0
KTAS 020856Z 16008KT 24/15 A2998 RMK A01 T02360152  RH  059%=      5-min Rain = 0
KTAS 020857Z 16007KT 24/15 A2998 RMK A01 T02360152  RH  059%=      5-min Rain = 0
KTAS 020858Z 17007KT 24/15 A2998 RMK A01 T02360152  RH  059%=      5-min Rain = 0
KTAS 020859Z 18007KT 24/15 A2998 RMK A01 T02370152  RH  059%=      5-min Rain = 0
KTAS 020900Z 18008KT 24/15 A2998 RMK A01 T02370152  RH  059%=      5-min Rain = 0
KTAS 020901Z 17009KT 24/15 A2998 RMK A01 T02370152  RH  059%=      5-min Rain = 0
KTAS 020902Z 18008KT 24/15 A2998 RMK A01 T02370152  RH  059%=      5-min Rain = 0
KTAS 020903Z 18008KT 24/15 A2998 RMK A01 T02370152  RH  059%=      5-min Rain = 0
KTAS 020904Z 18007KT 24/15 A2997 RMK A01 T02370152  RH  059%=      5-min Rain = 0
KTAS 020905Z 18008KT 24/15 A2997 RMK A01 T02380152  RH  059%=      5-min Rain = 0
KTAS 020906Z 18008KT 24/15 A2997 RMK A01 T02380152  RH  059%=      5-min Rain = 0
KTAS 020907Z 18007KT 24/15 A2997 RMK A01 T02370152  RH  059%=      5-min Rain = 0
KTAS 020908Z 19006KT 24/15 A2997 RMK A01 T02370152  RH  059%=      5-min Rain = 0
KTAS 020909Z 19007KT 24/15 A2997 RMK A01 T02360152  RH  059%=      5-min Rain = 0
KTAS 020910Z 18007KT 24/15 A2997 RMK A01 T02360152  RH  059%=      5-min Rain = 0
KTAS 020911Z 18007KT 24/15 A2997 RMK A01 T02360152  RH  059%=      5-min Rain = 0
KTAS 020912Z 18005KT 24/15 A2997 RMK A01 T02360152  RH  059%=      5-min Rain = 0
KTAS 020913Z 18007KT 24/15 A2997 RMK A01 T02360152  RH  059%=      5-min Rain = 0
KTAS 020914Z 17007KT 24/15 A2997 RMK A01 T02350152  RH  060%=      5-min Rain = 0
KTAS 020915Z 17007KT 24/15 A2997 RMK A01 T02350152  RH  060%=      5-min Rain = 0
KTAS 020916Z 17006KT 24/15 A2997 RMK A01 T02350152  RH  060%=      5-min Rain = 0
KTAS 020917Z 17007KT 24/15 A2997 RMK A01 T02350152  RH  060%=      5-min Rain = 0
KTAS 020918Z 18006KT 24/15 A2997 RMK A01 T02350153  RH  060%=      5-min Rain = 0
KTAS 020919Z 17006KT 24/15 A2997 RMK A01 T02350153  RH  060%=      5-min Rain = 0
KTAS 020920Z 17007KT 24/15 A2997 RMK A01 T02350153  RH  060%=      5-min Rain = 0
KTAS 020921Z 17006KT 24/15 A2997 RMK A01 T02350153  RH  060%=      5-min Rain = 0
KTAS 020922Z 17007KT 23/15 A2997 RMK A01 T02340153  RH  060%=      5-min Rain = 0
KTAS 020923Z 17007KT 23/15 A2997 RMK A01 T02340153  RH  060%=      5-min Rain = 0
KTAS 020924Z 17008KT 23/15 A2997 RMK A01 T02340152  RH  060%=      5-min Rain = 0
KTAS 020925Z 17007KT 23/15 A2997 RMK A01 T02340152  RH  060%=      5-min Rain = 0
KTAS 020926Z 17008KT 23/15 A2997 RMK A01 T02340152  RH  060%=      5-min Rain = 0
KTAS 020927Z 17008KT 23/15 A2997 RMK A01 T02340152  RH  060%=      5-min Rain = 0
KTAS 020928Z 17009KT 24/15 A2997 RMK A01 T02350152  RH  060%=      5-min Rain = 0
KTAS 020929Z 18007KT 24/15 A2997 RMK A01 T02350152  RH  060%=      5-min Rain = 0
KTAS 020930Z 19007KT 24/15 A2997 RMK A01 T02350153  RH  060%=      5-min Rain = 0
KTAS 020931Z 18007KT 23/15 A2997 RMK A01 T02340153  RH  060%=      5-min Rain = 0
KTAS 020932Z 18008KT 23/15 A2997 RMK A01 T02340153  RH  060%=      5-min Rain = 0
KTAS 020933Z 17007KT 23/15 A2997 RMK A01 T02340153  RH  060%=      5-min Rain = 0
KTAS 020934Z 18009KT 23/15 A2997 RMK A01 T02340153  RH  060%=      5-min Rain = 0
KTAS 020935Z 17010KT 23/15 A2997 RMK A01 T02340152  RH  060%=      5-min Rain = 0
KTAS 020936Z 17008KT 24/15 A2997 RMK A01 T02350152  RH  060%=      5-min Rain = 0
KTAS 020937Z 17008KT 24/15 A2997 RMK A01 T02350152  RH  060%=      5-min Rain = 0
KTAS 020938Z 17009KT 24/15 A2997 RMK A01 T02350152  RH  060%=      5-min Rain = 0
KTAS 020939Z 17009KT 24/15 A2997 RMK A01 T02350152  RH  060%=      5-min Rain = 0
KTAS 020940Z 17008KT 24/15 A2997 RMK A01 T02350152  RH  060%=      5-min Rain = 0
KTAS 020941Z 17009KT 24/15 A2997 RMK A01 T02350152  RH  060%=      5-min Rain = 0
KTAS 020942Z 16008KT 24/15 A2997 RMK A01 T02350152  RH  060%=      5-min Rain = 0
KTAS 020943Z 16009KT 24/15 A2997 RMK A01 T02350153  RH  060%=      5-min Rain = 0
KTAS 020944Z 16009KT 23/15 A2998 RMK A01 T02340152  RH  060%=      5-min Rain = 0
KTAS 020945Z 16010KT 23/15 A2998 RMK A01 T02340152  RH  060%=      5-min Rain = 0
KTAS 020946Z 16009KT 23/15 A2998 RMK A01 T02340153  RH  060%=      5-min Rain = 0
KTAS 020947Z 16009KT 23/15 A2998 RMK A01 T02340152  RH  060%=      5-min Rain = 0
KTAS 020948Z 16009KT 23/15 A2998 RMK A01 T02340152  RH  060%=      5-min Rain = 0
KTAS 020949Z 16009KT 23/15 A2997 RMK A01 T02340152  RH  060%=      5-min Rain = 0
KTAS 020950Z 16008KT 23/15 A2997 RMK A01 T02340152  RH  060%=      5-min Rain = 0
KTAS 020951Z 15007KT 23/15 A2997 RMK A01 T02340152  RH  060%=      5-min Rain = 0
KTAS 020952Z 16006KT 23/15 A2997 RMK A01 T02340153  RH  060%=      5-min Rain = 0
KTAS 020953Z 16007KT 23/15 A2997 RMK A01 T02340153  RH  060%=      5-min Rain = 0
KTAS 020954Z 17007KT 23/15 A2997 RMK A01 T02340153  RH  060%=      5-min Rain = 0
KTAS 020955Z 17008KT 23/15 A2997 RMK A01 T02330153  RH  061%=      5-min Rain = 0
KTAS 020956Z 16007KT 23/15 A2997 RMK A01 T02330152  RH  060%=      5-min Rain = 0
KTAS 020957Z 16007KT 23/15 A2997 RMK A01 T02340153  RH  060%=      5-min Rain = 0
KTAS 020958Z 16009KT 23/15 A2997 RMK A01 T02330152  RH  061%=      5-min Rain = 0
KTAS 020959Z 16009KT 23/15 A2997 RMK A01 T02330152  RH  060%=      5-min Rain = 0
KTAS 021000Z 16008KT 23/15 A2997 RMK A01 T02330152  RH  060%=      5-min Rain = 0
KTAS 021001Z 16008KT 23/15 A2997 RMK A01 T02340152  RH  060%=      5-min Rain = 0
KTAS 021002Z 17007KT 23/15 A2997 RMK A01 T02330153  RH  060%=      5-min Rain = 0
KTAS 021003Z 16009KT 23/15 A2997 RMK A01 T02330153  RH  061%=      5-min Rain = 0
KTAS 021004Z 16009KT 23/15 A2997 RMK A01 T02330152  RH  060%=      5-min Rain = 0
KTAS 021005Z 16008KT 23/15 A2997 RMK A01 T02330152  RH  060%=      5-min Rain = 0
KTAS 021006Z 17009KT 23/15 A2997 RMK A01 T02330152  RH  061%=      5-min Rain = 0
KTAS 021007Z 17008KT 23/15 A2997 RMK A01 T02330153  RH  061%=      5-min Rain = 0
KTAS 021008Z 17008KT 23/15 A2998 RMK A01 T02320152  RH  061%=      5-min Rain = 0
KTAS 021009Z 17009KT 23/15 A2998 RMK A01 T02320153  RH  061%=      5-min Rain = 0
KTAS 021010Z 17009KT 23/15 A2998 RMK A01 T02320153  RH  061%=      5-min Rain = 0
KTAS 021011Z 17009KT 23/15 A2998 RMK A01 T02320153  RH  061%=      5-min Rain = 0
KTAS 021012Z 17009KT 23/15 A2998 RMK A01 T02320153  RH  061%=      5-min Rain = 0
KTAS 021013Z 17009KT 23/15 A2998 RMK A01 T02320153  RH  061%=      5-min Rain = 0
KTAS 021014Z 17008KT 23/15 A2998 RMK A01 T02320153  RH  061%=      5-min Rain = 0
KTAS 021015Z 17008KT 23/15 A2998 RMK A01 T02320153  RH  061%=      5-min Rain = 0
KTAS 021016Z 17008KT 23/15 A2998 RMK A01 T02310153  RH  062%=      5-min Rain = 0
KTAS 021017Z 17008KT 23/15 A2998 RMK A01 T02310154  RH  062%=      5-min Rain = 0
KTAS 021018Z 17008KT 23/15 A2998 RMK A01 T02310154  RH  062%=      5-min Rain = 0
KTAS 021019Z 18008KT 23/15 A2998 RMK A01 T02300154  RH  062%=      5-min Rain = 0
KTAS 021020Z 18009KT 23/15 A2998 RMK A01 T02300154  RH  062%=      5-min Rain = 0
KTAS 021021Z 17009KT 23/15 A2998 RMK A01 T02300154  RH  062%=      5-min Rain = 0
KTAS 021022Z 17008KT 23/15 A2998 RMK A01 T02300154  RH  062%=      5-min Rain = 0
KTAS 021023Z 17007KT 23/15 A2998 RMK A01 T02300154  RH  062%=      5-min Rain = 0
KTAS 021024Z 17008KT 23/15 A2998 RMK A01 T02300154  RH  062%=      5-min Rain = 0
KTAS 021025Z 17007KT 23/15 A2998 RMK A01 T02300154  RH  062%=      5-min Rain = 0
KTAS 021026Z 17009KT 23/15 A2998 RMK A01 T02300154  RH  062%=      5-min Rain = 0
KTAS 021027Z 17007KT 23/15 A2998 RMK A01 T02300154  RH  062%=      5-min Rain = 0
KTAS 021028Z 17007KT 23/15 A2998 RMK A01 T02290154  RH  062%=      5-min Rain = 0
KTAS 021029Z 17008KT 23/15 A2998 RMK A01 T02290154  RH  063%=      5-min Rain = 0
KTAS 021030Z 17008KT 23/15 A2998 RMK A01 T02290154  RH  063%=      5-min Rain = 0
KTAS 021031Z 17008KT 23/15 A2998 RMK A01 T02290154  RH  063%=      5-min Rain = 0
KTAS 021032Z 17008KT 23/15 A2998 RMK A01 T02290154  RH  063%=      5-min Rain = 0
KTAS 021033Z 17009KT 23/16 A2998 RMK A01 T02290155  RH  063%=      5-min Rain = 0
KTAS 021034Z 17010KT 23/16 A2998 RMK A01 T02290155  RH  063%=      5-min Rain = 0
KTAS 021035Z 17010KT 23/16 A2998 RMK A01 T02280155  RH  063%=      5-min Rain = 0
KTAS 021036Z 17009KT 23/16 A2998 RMK A01 T02280155  RH  063%=      5-min Rain = 0
KTAS 021037Z 17008KT 23/16 A2998 RMK A01 T02280155  RH  063%=      5-min Rain = 0
KTAS 021038Z 17008KT 23/16 A2998 RMK A01 T02280155  RH  063%=      5-min Rain = 0
KTAS 021039Z 17009KT 23/16 A2998 RMK A01 T02280155  RH  064%=      5-min Rain = 0
KTAS 021040Z 17009KT 23/16 A2998 RMK A01 T02280156  RH  064%=      5-min Rain = 0
KTAS 021041Z 17009KT 23/16 A2998 RMK A01 T02280156  RH  064%=      5-min Rain = 0
KTAS 021042Z 17008KT 23/16 A2998 RMK A01 T02280156  RH  064%=      5-min Rain = 0
KTAS 021043Z 17007KT 23/16 A2998 RMK A01 T02280156  RH  064%=      5-min Rain = 0
KTAS 021044Z 17009KT 23/16 A2998 RMK A01 T02280156  RH  064%=      5-min Rain = 0
KTAS 021045Z 17012G17KT 23/16 A2999 RMK A01 T02280156  RH  064%=      5-min Rain = 0
KTAS 021046Z 17013KT 23/16 A2999 RMK A01 T02280156  RH  064%=      5-min Rain = 0
KTAS 021047Z 17010KT 23/16 A2998 RMK A01 T02290156  RH  063%=      5-min Rain = 0
KTAS 021048Z 18008KT 23/16 A2998 RMK A01 T02290156  RH  063%=      5-min Rain = 0
KTAS 021049Z 18010KT 23/16 A2998 RMK A01 T02290156  RH  064%=      5-min Rain = 0
KTAS 021050Z 17012KT 23/16 A2999 RMK A01 T02280156  RH  064%=      5-min Rain = 0
KTAS 021051Z 17010KT 23/16 A2999 RMK A01 T02280156  RH  064%=      5-min Rain = 0
KTAS 021052Z 18009KT 23/16 A2999 RMK A01 T02280157  RH  064%=      5-min Rain = 0
KTAS 021053Z 19008KT 23/16 A2998 RMK A01 T02270156  RH  064%=      5-min Rain = 0
KTAS 021054Z 18008KT 23/16 A2998 RMK A01 T02270157  RH  064%=      5-min Rain = 0
KTAS 021055Z 18009KT 23/16 A2998 RMK A01 T02270157  RH  065%=      5-min Rain = 0
KTAS 021056Z 19010KT 23/16 A2998 RMK A01 T02270157  RH  065%=      5-min Rain = 0
KTAS 021057Z 18010KT 23/16 A2998 RMK A01 T02270157  RH  065%=      5-min Rain = 0
KTAS 021058Z 19010KT 23/16 A2998 RMK A01 T02260156  RH  065%=      5-min Rain = 0
KTAS 021059Z 19009KT 23/16 A2998 RMK A01 T02270157  RH  065%=      5-min Rain = 0
KTAS 021100Z 19010KT 23/16 A2998 RMK A01 T02260157  RH  065%=      5-min Rain = 0
KTAS 021101Z 18008KT 23/16 A2998 RMK A01 T02250157  RH  065%=      5-min Rain = 0
KTAS 021102Z 19009KT 23/16 A2998 RMK A01 T02250156  RH  065%=      5-min Rain = 0
KTAS 021103Z 18009KT 22/16 A2998 RMK A01 T02240156  RH  065%=      5-min Rain = 0
KTAS 021104Z 18008KT 22/16 A2998 RMK A01 T02240156  RH  065%=      5-min Rain = 0
KTAS 021105Z 19008KT 22/16 A2998 RMK A01 T02240157  RH  065%=      5-min Rain = 0
KTAS 021106Z 18008KT 22/16 A2998 RMK A01 T02240157  RH  066%=      5-min Rain = 0
KTAS 021107Z 18009KT 22/16 A2999 RMK A01 T02240156  RH  066%=      5-min Rain = 0
KTAS 021108Z 18010KT 22/16 A2999 RMK A01 T02240156  RH  066%=      5-min Rain = 0
KTAS 021109Z 18008KT 22/16 A2999 RMK A01 T02240156  RH  066%=      5-min Rain = 0
KTAS 021110Z 18009KT 22/16 A2999 RMK A01 T02240156  RH  066%=      5-min Rain = 0
KTAS 021111Z 18008KT 22/16 A2999 RMK A01 T02240156  RH  066%=      5-min Rain = 0
KTAS 021112Z 19007KT 22/16 A2999 RMK A01 T02240157  RH  066%=      5-min Rain = 0
KTAS 021113Z 18007KT 22/16 A2999 RMK A01 T02230157  RH  066%=      5-min Rain = 0
KTAS 021114Z 19007KT 22/16 A2999 RMK A01 T02230157  RH  066%=      5-min Rain = 0
KTAS 021115Z 19008KT 22/16 A2999 RMK A01 T02220157  RH  066%=      5-min Rain = 0
KTAS 021116Z 19008KT 22/16 A2999 RMK A01 T02220157  RH  066%=      5-min Rain = 0
KTAS 021117Z 19008KT 22/16 A2999 RMK A01 T02220157  RH  066%=      5-min Rain = 0
KTAS 021118Z 19008KT 22/16 A2999 RMK A01 T02220157  RH  067%=      5-min Rain = 0
KTAS 021119Z 19007KT 22/16 A2999 RMK A01 T02210157  RH  067%=      5-min Rain = 0
KTAS 021120Z 19007KT 22/16 A2999 RMK A01 T02210157  RH  067%=      5-min Rain = 0
KTAS 021121Z 19007KT 22/16 A2999 RMK A01 T02200157  RH  067%=      5-min Rain = 0
KTAS 021122Z 19008KT 22/16 A2999 RMK A01 T02200157  RH  067%=      5-min Rain = 0
KTAS 021123Z 19008KT 22/16 A2999 RMK A01 T02190157  RH  067%=      5-min Rain = 0
KTAS 021124Z 19007KT 22/16 A2999 RMK A01 T02190157  RH  068%=      5-min Rain = 0
KTAS 021125Z 19008KT 22/16 A2999 RMK A01 T02190157  RH  068%=      5-min Rain = 0
KTAS 021126Z 19007KT 22/16 A2999 RMK A01 T02190157  RH  068%=      5-min Rain = 0
KTAS 021127Z 19008KT 22/16 A2999 RMK A01 T02190157  RH  068%=      5-min Rain = 0
KTAS 021128Z 19006KT 22/16 A2999 RMK A01 T02190157  RH  068%=      5-min Rain = 0
KTAS 021129Z 20007KT 22/16 A2999 RMK A01 T02180157  RH  068%=      5-min Rain = 0
KTAS 021130Z 20006KT 22/16 A2999 RMK A01 T02170157  RH  068%=      5-min Rain = 0
KTAS 021131Z 20006KT 22/16 A2999 RMK A01 T02170157  RH  069%=      5-min Rain = 0
KTAS 021132Z 20006KT 22/16 A2999 RMK A01 T02170157  RH  069%=      5-min Rain = 0
KTAS 021133Z 20006KT 22/16 A2999 RMK A01 T02170157  RH  068%=      5-min Rain = 0
KTAS 021134Z 20007KT 22/16 A2999 RMK A01 T02170157  RH  069%=      5-min Rain = 0
KTAS 021135Z 19007KT 22/16 A2999 RMK A01 T02180157  RH  068%=      5-min Rain = 0
KTAS 021136Z 19007KT 22/16 A2999 RMK A01 T02190158  RH  068%=      5-min Rain = 0
KTAS 021137Z 19006KT 22/16 A2999 RMK A01 T02180157  RH  068%=      5-min Rain = 0
KTAS 021138Z 20007KT 22/16 A2999 RMK A01 T02180157  RH  068%=      5-min Rain = 0
KTAS 021139Z 20006KT 22/16 A2999 RMK A01 T02170157  RH  069%=      5-min Rain = 0
KTAS 021140Z 20007KT 22/16 A2999 RMK A01 T02170158  RH  069%=      5-min Rain = 0
KTAS 021141Z 20006KT 22/16 A2999 RMK A01 T02170158  RH  069%=      5-min Rain = 0
KTAS 021142Z 20006KT 22/16 A2999 RMK A01 T02170158  RH  069%=      5-min Rain = 0
KTAS 021143Z 20006KT 22/16 A2999 RMK A01 T02170158  RH  069%=      5-min Rain = 0
KTAS 021144Z 20006KT 22/16 A2999 RMK A01 T02170158  RH  069%=      5-min Rain = 0
KTAS 021145Z 19006KT 22/16 A2999 RMK A01 T02170158  RH  069%=      5-min Rain = 0
KTAS 021146Z 19006KT 22/16 A2999 RMK A01 T02170158  RH  069%=      5-min Rain = 0
KTAS 021147Z 19006KT 22/16 A2999 RMK A01 T02170158  RH  069%=      5-min Rain = 0
KTAS 021148Z 19006KT 22/16 A2999 RMK A01 T02160158  RH  069%=      5-min Rain = 0
KTAS 021149Z 20006KT 22/16 A2999 RMK A01 T02160158  RH  069%=      5-min Rain = 0
KTAS 021150Z 20006KT 22/16 A2999 RMK A01 T02160158  RH  069%=      5-min Rain = 0
KTAS 021151Z 19006KT 22/16 A2999 RMK A01 T02160158  RH  070%=      5-min Rain = 0
KTAS 021152Z 19006KT 22/16 A2999 RMK A01 T02160158  RH  070%=      5-min Rain = 0
KTAS 021153Z 19006KT 22/16 A2999 RMK A01 T02160159  RH  070%=      5-min Rain = 0
KTAS 021154Z 18006KT 22/16 A2999 RMK A01 T02160158  RH  070%=      5-min Rain = 0
KTAS 021155Z 18006KT 22/16 A2999 RMK A01 T02160158  RH  070%=      5-min Rain = 0
KTAS 021156Z 18006KT 22/16 A30 RMK A01 T02160159  RH  070%=      5-min Rain = 0
KTAS 021157Z 18006KT 22/16 A30 RMK A01 T02160159  RH  070%=      5-min Rain = 0
KTAS 021158Z 17006KT 22/16 A30 RMK A01 T02160159  RH  070%=      5-min Rain = 0
KTAS 021159Z 17006KT 22/16 A30 RMK A01 T02160159  RH  070%=      5-min Rain = 0
KTAS 021200Z 17007KT 22/16 A30 RMK A01 T02170159  RH  070%=      5-min Rain = 0
KTAS 021201Z 18007KT 22/16 A30 RMK A01 T02170159  RH  070%=      5-min Rain = 0
KTAS 021202Z 18007KT 22/16 A30 RMK A01 T02170159  RH  070%=      5-min Rain = 0
KTAS 021203Z 18006KT 22/16 A30 RMK A01 T02180160  RH  069%=      5-min Rain = 0
KTAS 021204Z 19006KT 22/16 A30 RMK A01 T02180160  RH  069%=      5-min Rain = 0
KTAS 021205Z 19007KT 22/16 A30 RMK A01 T02180160  RH  070%=      5-min Rain = 0
KTAS 021206Z 19007KT 22/16 A30 RMK A01 T02180160  RH  070%=      5-min Rain = 0
KTAS 021207Z 19007KT 22/16 A30 RMK A01 T02180160  RH  069%=      5-min Rain = 0
KTAS 021208Z 19007KT 22/16 A30 RMK A01 T02180160  RH  070%=      5-min Rain = 0
KTAS 021209Z 19007KT 22/16 A30 RMK A01 T02180160  RH  070%=      5-min Rain = 0
KTAS 021210Z 19007KT 22/16 A30 RMK A01 T02170160  RH  070%=      5-min Rain = 0
KTAS 021211Z 19007KT 22/16 A30 RMK A01 T02170160  RH  070%=      5-min Rain = 0
KTAS 021212Z 19006KT 22/16 A30 RMK A01 T02170160  RH  070%=      5-min Rain = 0
KTAS 021213Z 19007KT 22/16 A30 RMK A01 T02170161  RH  070%=      5-min Rain = 0
KTAS 021214Z 18007KT 22/16 A30 RMK A01 T02170161  RH  070%=      5-min Rain = 0
KTAS 021215Z 18006KT 22/16 A30 RMK A01 T02180161  RH  070%=      5-min Rain = 0
KTAS 021216Z 18007KT 22/16 A30 RMK A01 T02180161  RH  070%=      5-min Rain = 0
KTAS 021217Z 18007KT 22/16 A30 RMK A01 T02190161  RH  070%=      5-min Rain = 0
KTAS 021218Z 18007KT 22/16 A30 RMK A01 T02190161  RH  070%=      5-min Rain = 0
KTAS 021219Z 18007KT 22/16 A30 RMK A01 T02200162  RH  069%=      5-min Rain = 0
KTAS 021220Z 18008KT 22/16 A30 RMK A01 T02210162  RH  069%=      5-min Rain = 0
KTAS 021221Z 18007KT 22/16 A30 RMK A01 T02220162  RH  069%=      5-min Rain = 0
KTAS 021222Z 17007KT 22/16 A30 RMK A01 T02220162  RH  069%=      5-min Rain = 0
KTAS 021223Z 18007KT 22/16 A30 RMK A01 T02220162  RH  069%=      5-min Rain = 0
KTAS 021224Z 18007KT 22/16 A30 RMK A01 T02230163  RH  069%=      5-min Rain = 0
KTAS 021225Z 18008KT 22/16 A30 RMK A01 T02230162  RH  068%=      5-min Rain = 0
KTAS 021226Z 19008KT 22/16 A30 RMK A01 T02240163  RH  068%=      5-min Rain = 0
KTAS 021227Z 18008KT 22/16 A30 RMK A01 T02240163  RH  068%=      5-min Rain = 0
KTAS 021228Z 18008KT 22/16 A30 RMK A01 T02240162  RH  068%=      5-min Rain = 0
KTAS 021229Z 18007KT 23/16 A30 RMK A01 T02250163  RH  068%=      5-min Rain = 0
KTAS 021230Z 18009KT 23/16 A30 RMK A01 T02250163  RH  068%=      5-min Rain = 0
KTAS 021231Z 18008KT 23/16 A30 RMK A01 T02250163  RH  068%=      5-min Rain = 0
KTAS 021232Z 18008KT 23/16 A30 RMK A01 T02260163  RH  068%=      5-min Rain = 0
KTAS 021233Z 18008KT 23/16 A30 RMK A01 T02260163  RH  067%=      5-min Rain = 0
KTAS 021234Z 18007KT 23/16 A30 RMK A01 T02270163  RH  067%=      5-min Rain = 0
KTAS 021235Z 18008KT 23/16 A30 RMK A01 T02270164  RH  067%=      5-min Rain = 0
KTAS 021236Z 18008KT 23/16 A3001 RMK A01 T02280164  RH  067%=      5-min Rain = 0
KTAS 021237Z 18011KT 23/16 A3001 RMK A01 T02280164  RH  067%=      5-min Rain = 0
KTAS 021238Z 17009KT 23/16 A3001 RMK A01 T02290163  RH  066%=      5-min Rain = 0
KTAS 021239Z 18009KT 23/16 A3001 RMK A01 T02290163  RH  066%=      5-min Rain = 0
KTAS 021240Z 17008KT 23/16 A3001 RMK A01 T02300164  RH  066%=      5-min Rain = 0
KTAS 021241Z 18010KT 23/16 A3001 RMK A01 T02300164  RH  066%=      5-min Rain = 0
KTAS 021242Z 18009KT 23/16 A3001 RMK A01 T02310164  RH  066%=      5-min Rain = 0
KTAS 021243Z 18008KT 23/16 A3001 RMK A01 T02310164  RH  066%=      5-min Rain = 0
KTAS 021244Z 18009KT 23/17 A3001 RMK A01 T02320165  RH  066%=      5-min Rain = 0
KTAS 021245Z 18010KT 23/16 A3001 RMK A01 T02320164  RH  066%=      5-min Rain = 0
KTAS 021246Z 18009KT 23/17 A3001 RMK A01 T02320165  RH  066%=      5-min Rain = 0
KTAS 021247Z 18009KT 23/16 A3001 RMK A01 T02320164  RH  066%=      5-min Rain = 0
KTAS 021248Z 18008KT 23/17 A3001 RMK A01 T02330165  RH  066%=      5-min Rain = 0
KTAS 021249Z 19007KT 23/17 A3001 RMK A01 T02340165  RH  065%=      5-min Rain = 0
KTAS 021250Z 19008KT 23/17 A30 RMK A01 T02340166  RH  066%=      5-min Rain = 0
KTAS 021251Z 19009KT 23/17 A3001 RMK A01 T02340166  RH  066%=      5-min Rain = 0
KTAS 021252Z 18009KT 23/17 A3001 RMK A01 T02340166  RH  065%=      5-min Rain = 0
KTAS 021253Z 19009KT 24/17 A3001 RMK A01 T02350166  RH  065%=      5-min Rain = 0
KTAS 021254Z 18008KT 24/17 A3001 RMK A01 T02360167  RH  065%=      5-min Rain = 0
KTAS 021255Z 18009KT 24/17 A3001 RMK A01 T02360167  RH  065%=      5-min Rain = 0
KTAS 021256Z 18008KT 24/17 A3001 RMK A01 T02370167  RH  065%=      5-min Rain = 0
KTAS 021257Z 18009KT 24/17 A3001 RMK A01 T02380167  RH  065%=      5-min Rain = 0
KTAS 021258Z 18009KT 24/17 A3001 RMK A01 T02380167  RH  064%=      5-min Rain = 0
KTAS 021259Z 18009KT 24/17 A3001 RMK A01 T02390167  RH  064%=      5-min Rain = 0
KTAS 021300Z 18009KT 24/17 A3001 RMK A01 T02390168  RH  064%=      5-min Rain = 0
KTAS 021301Z 18009KT 24/17 A3001 RMK A01 T02400167  RH  064%=      5-min Rain = 0
KTAS 021302Z 18009KT 24/17 A3001 RMK A01 T02400168  RH  064%=      5-min Rain = 0
KTAS 021303Z 17011KT 24/17 A3001 RMK A01 T02400167  RH  063%=      5-min Rain = 0
KTAS 021304Z 18009KT 24/17 A3001 RMK A01 T02400167  RH  063%=      5-min Rain = 0
KTAS 021305Z 18009KT 24/17 A3001 RMK A01 T02410167  RH  063%=      5-min Rain = 0
KTAS 021306Z 18010KT 24/17 A3001 RMK A01 T02420168  RH  063%=      5-min Rain = 0
KTAS 021307Z 18011KT 24/17 A3001 RMK A01 T02420168  RH  063%=      5-min Rain = 0
KTAS 021308Z 18010KT 24/17 A3001 RMK A01 T02420167  RH  063%=      5-min Rain = 0
KTAS 021309Z 18010KT 24/17 A3001 RMK A01 T02420168  RH  063%=      5-min Rain = 0
KTAS 021310Z 19008KT 24/17 A3001 RMK A01 T02420169  RH  063%=      5-min Rain = 0
KTAS 021311Z 19008KT 24/17 A3001 RMK A01 T02430169  RH  063%=      5-min Rain = 0
KTAS 021312Z 19008KT 24/17 A3001 RMK A01 T02440170  RH  063%=      5-min Rain = 0
KTAS 021313Z 19010KT 25/17 A3001 RMK A01 T02450170  RH  063%=      5-min Rain = 0
KTAS 021314Z 19008KT 24/17 A3001 RMK A01 T02440169  RH  063%=      5-min Rain = 0
KTAS 021315Z 19009KT 24/17 A3001 RMK A01 T02440169  RH  063%=      5-min Rain = 0
KTAS 021316Z 19008KT 25/17 A3001 RMK A01 T02450170  RH  063%=      5-min Rain = 0
KTAS 021317Z 19009KT 25/17 A3002 RMK A01 T02460171  RH  063%=      5-min Rain = 0
KTAS 021318Z 20010KT 25/17 A3002 RMK A01 T02460170  RH  062%=      5-min Rain = 0
KTAS 021319Z 19011KT 25/17 A3002 RMK A01 T02460169  RH  062%=      5-min Rain = 0
KTAS 021320Z 20009KT 25/17 A3002 RMK A01 T02450169  RH  062%=      5-min Rain = 0
KTAS 021321Z 19009KT 25/17 A3002 RMK A01 T02460170  RH  063%=      5-min Rain = 0
KTAS 021322Z 19010KT 25/17 A3002 RMK A01 T02470171  RH  062%=      5-min Rain = 0
KTAS 021323Z 20009KT 25/17 A3002 RMK A01 T02480171  RH  062%=      5-min Rain = 0
KTAS 021324Z 20008KT 25/17 A3002 RMK A01 T02480170  RH  062%=      5-min Rain = 0
KTAS 021325Z 20010KT 25/17 A3002 RMK A01 T02480170  RH  062%=      5-min Rain = 0
KTAS 021326Z 20013KT 25/17 A3002 RMK A01 T02480169  RH  061%=      5-min Rain = 0
KTAS 021327Z 20012KT 25/17 A3002 RMK A01 T02480169  RH  061%=      5-min Rain = 0
KTAS 021328Z 19009KT 25/17 A3003 RMK A01 T02480170  RH  062%=      5-min Rain = 0
KTAS 021329Z 20012KT 25/17 A3003 RMK A01 T02490171  RH  062%=      5-min Rain = 0
KTAS 021330Z 19012KT 25/17 A3003 RMK A01 T02500170  RH  061%=      5-min Rain = 0
KTAS 021331Z 21012KT 25/17 A3003 RMK A01 T02500170  RH  061%=      5-min Rain = 0
KTAS 021332Z 20009KT 25/17 A3003 RMK A01 T02510170  RH  061%=      5-min Rain = 0
KTAS 021333Z 19011KT 25/17 A3003 RMK A01 T02520171  RH  061%=      5-min Rain = 0
KTAS 021334Z 20012KT 25/17 A3003 RMK A01 T02520171  RH  060%=      5-min Rain = 0
KTAS 021335Z 19012KT 25/17 A3003 RMK A01 T02520170  RH  060%=      5-min Rain = 0
KTAS 021336Z 20014KT 25/17 A3003 RMK A01 T02520169  RH  060%=      5-min Rain = 0
KTAS 021337Z 20013KT 25/17 A3003 RMK A01 T02510169  RH  060%=      5-min Rain = 0
KTAS 021338Z 20010KT 25/17 A3003 RMK A01 T02520171  RH  061%=      5-min Rain = 0
KTAS 021339Z 19012KT 25/17 A3003 RMK A01 T02530170  RH  060%=      5-min Rain = 0
KTAS 021340Z 20013KT 25/17 A3003 RMK A01 T02530169  RH  060%=      5-min Rain = 0
KTAS 021341Z 21011KT 25/17 A3003 RMK A01 T02530170  RH  060%=      5-min Rain = 0
KTAS 021342Z 19011KT 25/17 A3003 RMK A01 T02540171  RH  060%=      5-min Rain = 0
KTAS 021343Z 20012KT 26/17 A3003 RMK A01 T02550170  RH  060%=      5-min Rain = 0
KTAS 021344Z 20010KT 26/17 A3003 RMK A01 T02550171  RH  060%=      5-min Rain = 0
KTAS 021345Z 20012KT 26/17 A3003 RMK A01 T02550170  RH  059%=      5-min Rain = 0
KTAS 021346Z 19013KT 26/17 A3003 RMK A01 T02550170  RH  059%=      5-min Rain = 0
KTAS 021347Z 20013KT 25/17 A3003 RMK A01 T02540169  RH  059%=      5-min Rain = 0
KTAS 021348Z 21013KT 25/17 A3003 RMK A01 T02540169  RH  059%=      5-min Rain = 0
KTAS 021349Z 20011KT 26/17 A3003 RMK A01 T02550170  RH  059%=      5-min Rain = 0
KTAS 021350Z 20014KT 26/17 A3003 RMK A01 T02550170  RH  059%=      5-min Rain = 0
KTAS 021351Z 20012KT 26/17 A3003 RMK A01 T02550169  RH  059%=      5-min Rain = 0
KTAS 021352Z 19013KT 26/17 A3003 RMK A01 T02560171  RH  059%=      5-min Rain = 0
KTAS 021353Z 19012KT 26/17 A3003 RMK A01 T02570171  RH  059%=      5-min Rain = 0
KTAS 021354Z 19015KT 26/17 A3003 RMK A01 T02570171  RH  059%=      5-min Rain = 0
KTAS 021355Z 20012KT 26/17 A3003 RMK A01 T02560170  RH  059%=      5-min Rain = 0
KTAS 021356Z 21013KT 26/17 A3003 RMK A01 T02570171  RH  059%=      5-min Rain = 0
KTAS 021357Z 21013KT 26/17 A3003 RMK A01 T02570170  RH  059%=      5-min Rain = 0
KTAS 021358Z 19012KT 26/17 A3003 RMK A01 T02590172  RH  059%=      5-min Rain = 0
KTAS 021359Z 20014KT 26/17 A3003 RMK A01 T02580171  RH  059%=      5-min Rain = 0
KTAS 021400Z 20014KT 26/17 A3003 RMK A01 T02570171  RH  059%=      5-min Rain = 0
KTAS 021401Z 21015KT 26/17 A3003 RMK A01 T02580171  RH  059%=      5-min Rain = 0
KTAS 021402Z 21014KT 26/17 A3003 RMK A01 T02580171  RH  059%=      5-min Rain = 0
KTAS 021403Z 21015G20KT 26/17 A3003 RMK A01 T02590172  RH  059%=      5-min Rain = 0
KTAS 021404Z 20015KT 26/17 A3003 RMK A01 T02580171  RH  059%=      5-min Rain = 0
KTAS 021405Z 21013KT 26/17 A3003 RMK A01 T02590172  RH  059%=      5-min Rain = 0
KTAS 021406Z 21014KT 26/17 A3003 RMK A01 T02600172  RH  059%=      5-min Rain = 0
KTAS 021407Z 20018KT 26/17 A3003 RMK A01 T02590172  RH  058%=      5-min Rain = 0
KTAS 021408Z 20014KT 26/17 A3003 RMK A01 T02590172  RH  058%=      5-min Rain = 0
KTAS 021409Z 21013G18KT 26/17 A3003 RMK A01 T02600173  RH  059%=      5-min Rain = 0
KTAS 021410Z 21016KT 26/17 A3003 RMK A01 T02610173  RH  058%=      5-min Rain = 0
KTAS 021411Z 21013KT 26/17 A3003 RMK A01 T02620173  RH  058%=      5-min Rain = 0
KTAS 021412Z 20014KT 26/17 A3003 RMK A01 T02620173  RH  058%=      5-min Rain = 0
KTAS 021413Z 21015KT 26/17 A3003 RMK A01 T02610172  RH  058%=      5-min Rain = 0
KTAS 021414Z 21014G19KT 26/17 A3003 RMK A01 T02610173  RH  058%=      5-min Rain = 0
KTAS 021415Z 21014KT 26/17 A3003 RMK A01 T02620172  RH  058%=      5-min Rain = 0
KTAS 021416Z 21014KT 26/17 A3003 RMK A01 T02620173  RH  058%=      5-min Rain = 0
KTAS 021417Z 21014KT 26/17 A3003 RMK A01 T02620172  RH  058%=      5-min Rain = 0
KTAS 021418Z 21014KT 26/17 A3003 RMK A01 T02630172  RH  057%=      5-min Rain = 0
KTAS 021419Z 21014KT 26/17 A3003 RMK A01 T02640173  RH  057%=      5-min Rain = 0
KTAS 021420Z 20013KT 27/17 A3003 RMK A01 T02650172  RH  057%=      5-min Rain = 0
KTAS 021421Z 19013KT 27/17 A3003 RMK A01 T02650173  RH  057%=      5-min Rain = 0
KTAS 021422Z 20013KT 27/17 A3003 RMK A01 T02650173  RH  057%=      5-min Rain = 0
KTAS 021423Z 20014KT 27/17 A3003 RMK A01 T02660173  RH  057%=      5-min Rain = 0
KTAS 021424Z 20013KT 27/17 A3003 RMK A01 T02660173  RH  057%=      5-min Rain = 0
KTAS 021425Z 21012KT 27/17 A3003 RMK A01 T02670174  RH  057%=      5-min Rain = 0
KTAS 021426Z 20013KT 27/17 A3003 RMK A01 T02670173  RH  056%=      5-min Rain = 0
KTAS 021427Z 21012KT 27/17 A3003 RMK A01 T02660173  RH  057%=      5-min Rain = 0
KTAS 021428Z 21012KT 27/17 A3003 RMK A01 T02670174  RH  057%=      5-min Rain = 0
KTAS 021429Z 21011KT 27/18 A3003 RMK A01 T02690175  RH  056%=      5-min Rain = 0
KTAS 021430Z 22011KT 27/18 A3003 RMK A01 T02700175  RH  056%=      5-min Rain = 0
KTAS 021431Z 21012KT 27/18 A3003 RMK A01 T02720175  RH  055%=      5-min Rain = 0
KTAS 021432Z 22013KT 27/18 A3003 RMK A01 T02720175  RH  055%=      5-min Rain = 0
KTAS 021433Z 21013KT 27/17 A3003 RMK A01 T02720174  RH  055%=      5-min Rain = 0
KTAS 021434Z 22013KT 27/18 A3003 RMK A01 T02720175  RH  055%=      5-min Rain = 0
KTAS 021435Z 22015KT 27/17 A3003 RMK A01 T02720174  RH  055%=      5-min Rain = 0
KTAS 021436Z 22012KT 27/17 A3003 RMK A01 T02710173  RH  055%=      5-min Rain = 0
KTAS 021437Z 21013KT 27/17 A3003 RMK A01 T02710174  RH  055%=      5-min Rain = 0
KTAS 021438Z 22013KT 27/17 A3003 RMK A01 T02710174  RH  055%=      5-min Rain = 0
KTAS 021439Z 22010KT 27/18 A3003 RMK A01 T02730176  RH  055%=      5-min Rain = 0
KTAS 021440Z 22011KT 28/18 A3003 RMK A01 T02750175  RH  054%=      5-min Rain = 0
KTAS 021441Z 21009KT 28/18 A3003 RMK A01 T02750177  RH  055%=      5-min Rain = 0
KTAS 021442Z 21010KT 28/18 A3003 RMK A01 T02780178  RH  055%=      5-min Rain = 0
KTAS 021443Z 20012KT 28/18 A3003 RMK A01 T02780176  RH  054%=      5-min Rain = 0
KTAS 021444Z 19014KT 28/18 A3003 RMK A01 T02770176  RH  054%=      5-min Rain = 0
KTAS 021445Z 20013KT 28/18 A3003 RMK A01 T02760175  RH  054%=      5-min Rain = 0
KTAS 021446Z 20011KT 28/18 A3003 RMK A01 T02760176  RH  054%=      5-min Rain = 0
KTAS 021447Z 20012KT 28/18 A3003 RMK A01 T02760176  RH  054%=      5-min Rain = 0
KTAS 021448Z 20011KT 28/18 A3003 RMK A01 T02760175  RH  054%=      5-min Rain = 0
KTAS 021449Z 19012KT 28/18 A3003 RMK A01 T02770176  RH  054%=      5-min Rain = 0
KTAS 021450Z 19011KT 28/18 A3003 RMK A01 T02780176  RH  054%=      5-min Rain = 0
KTAS 021451Z 20012KT 28/18 A3003 RMK A01 T02790176  RH  054%=      5-min Rain = 0
KTAS 021452Z 19012KT 28/18 A3003 RMK A01 T02780175  RH  053%=      5-min Rain = 0
KTAS 021453Z 20011KT 28/18 A3003 RMK A01 T02770175  RH  054%=      5-min Rain = 0
KTAS 021454Z 20010KT 28/18 A3003 RMK A01 T02790177  RH  054%=      5-min Rain = 0
KTAS 021455Z 20012KT 28/18 A3003 RMK A01 T02810177  RH  053%=      5-min Rain = 0
KTAS 021456Z 20014KT 28/17 A3003 RMK A01 T02790174  RH  053%=      5-min Rain = 0
KTAS 021457Z 21010KT 28/18 A3003 RMK A01 T02790177  RH  054%=      5-min Rain = 0
KTAS 021458Z 21011KT 28/18 A3003 RMK A01 T02800175  RH  053%=      5-min Rain = 0
KTAS 021459Z 21011KT 28/18 A3003 RMK A01 T02790175  RH  053%=      5-min Rain = 0
KTAS 021500Z 19012KT 28/18 A3003 RMK A01 T02790176  RH  054%=      5-min Rain = 0
KTAS 021501Z 19014KT 28/18 A3003 RMK A01 T02810175  RH  053%=      5-min Rain = 0
KTAS 021502Z 19011KT 28/18 A3003 RMK A01 T02820176  RH  052%=      5-min Rain = 0
KTAS 021503Z 18013KT 28/18 A3003 RMK A01 T02820176  RH  052%=      5-min Rain = 0
KTAS 021504Z 18011KT 28/18 A3003 RMK A01 T02830176  RH  052%=      5-min Rain = 0
KTAS 021505Z 19011KT 28/18 A3003 RMK A01 T02840176  RH  052%=      5-min Rain = 0
KTAS 021506Z 19012KT 29/18 A3003 RMK A01 T02850177  RH  052%=      5-min Rain = 0
KTAS 021507Z 19014KT 28/17 A3003 RMK A01 T02840174  RH  051%=      5-min Rain = 0
KTAS 021508Z 20012KT 28/17 A3003 RMK A01 T02820174  RH  052%=      5-min Rain = 0
KTAS 021509Z 20011KT 28/17 A3004 RMK A01 T02810174  RH  052%=      5-min Rain = 0
KTAS 021510Z 19013KT 28/17 A3004 RMK A01 T02820174  RH  052%=      5-min Rain = 0
KTAS 021511Z 18013KT 28/17 A3004 RMK A01 T02810173  RH  052%=      5-min Rain = 0
KTAS 021512Z 18014KT 28/17 A3004 RMK A01 T02820173  RH  051%=      5-min Rain = 0
KTAS 021513Z 18015KT 28/17 A3004 RMK A01 T02820173  RH  052%=      5-min Rain = 0
KTAS 021514Z 19015KT 28/17 A3004 RMK A01 T02830174  RH  051%=      5-min Rain = 0
KTAS 021515Z 19013KT 28/17 A3004 RMK A01 T02820173  RH  052%=      5-min Rain = 0
KTAS 021516Z 20013KT 28/17 A3004 RMK A01 T02810173  RH  052%=      5-min Rain = 0
KTAS 021517Z 19012KT 28/17 A3004 RMK A01 T02810174  RH  052%=      5-min Rain = 0
KTAS 021518Z 20011KT 28/18 A3004 RMK A01 T02840177  RH  052%=      5-min Rain = 0
KTAS 021519Z 20012KT 29/18 A3004 RMK A01 T02870176  RH  051%=      5-min Rain = 0
KTAS 021520Z 21013KT 29/18 A3004 RMK A01 T02860176  RH  051%=      5-min Rain = 0
KTAS 021521Z 21013KT 29/18 A3004 RMK A01 T02850175  RH  051%=      5-min Rain = 0
KTAS 021522Z 21010G15KT 29/18 A3004 RMK A01 T02860177  RH  052%=      5-min Rain = 0
KTAS 021523Z 21014KT 29/18 A3004 RMK A01 T02870176  RH  051%=      5-min Rain = 0
KTAS 021524Z 20012KT 29/18 A3004 RMK A01 T02870176  RH  051%=      5-min Rain = 0
KTAS 021525Z 18010G15KT 29/18 A3004 RMK A01 T02880178  RH  051%=      5-min Rain = 0
KTAS 021526Z 18014KT 29/18 A3004 RMK A01 T02900177  RH  050%=      5-min Rain = 0
KTAS 021527Z 18014KT 29/18 A3004 RMK A01 T02890176  RH  050%=      5-min Rain = 0
KTAS 021528Z 18014KT 29/18 A3004 RMK A01 T02880175  RH  051%=      5-min Rain = 0
KTAS 021529Z 19010KT 29/18 A3004 RMK A01 T02870176  RH  051%=      5-min Rain = 0
KTAS 021530Z 19012KT 29/18 A3004 RMK A01 T02890179  RH  052%=      5-min Rain = 0
KTAS 021531Z 19013KT 29/18 A3004 RMK A01 T02920179  RH  051%=      5-min Rain = 0
KTAS 021532Z 20012KT 29/18 A3004 RMK A01 T02910177  RH  050%=      5-min Rain = 0
KTAS 021533Z 19012KT 29/18 A3004 RMK A01 T02900178  RH  051%=      5-min Rain = 0
KTAS 021534Z 18015KT 29/18 A3004 RMK A01 T02890175  RH  050%=      5-min Rain = 0
KTAS 021535Z 19015KT 29/17 A3004 RMK A01 T02870174  RH  051%=      5-min Rain = 0
KTAS 021536Z 20013KT 29/18 A3004 RMK A01 T02860176  RH  051%=      5-min Rain = 0
KTAS 021537Z 19011G16KT 29/18 A3004 RMK A01 T02890179  RH  051%=      5-min Rain = 0
KTAS 021538Z 19011KT 29/18 A3004 RMK A01 T02910176  RH  050%=      5-min Rain = 0
KTAS 021539Z 20012KT 29/18 A3004 RMK A01 T02900175  RH  050%=      5-min Rain = 0
KTAS 021540Z 21012KT 29/17 A3004 RMK A01 T02880174  RH  050%=      5-min Rain = 0
KTAS 021541Z 21011G16KT 29/18 A3004 RMK A01 T02870176  RH  051%=      5-min Rain = 0
KTAS 021542Z 18013G19KT 29/18 A3004 RMK A01 T02910178  RH  051%=      5-min Rain = 0
KTAS 021543Z 19012KT 29/18 A3004 RMK A01 T02920176  RH  050%=      5-min Rain = 0
KTAS 021544Z 19011KT 29/18 A3004 RMK A01 T02940178  RH  050%=      5-min Rain = 0
KTAS 021545Z 19013KT 30/18 A3004 RMK A01 T02950177  RH  049%=      5-min Rain = 0
KTAS 021546Z 20016KT 29/18 A3004 RMK A01 T02940175  RH  049%=      5-min Rain = 0
KTAS 021547Z 20012KT 29/18 A3004 RMK A01 T02930178  RH  050%=      5-min Rain = 0
KTAS 021548Z 20015KT 29/18 A3004 RMK A01 T02940176  RH  049%=      5-min Rain = 0
KTAS 021549Z 19015KT 29/17 A3004 RMK A01 T02910174  RH  049%=      5-min Rain = 0
KTAS 021550Z 20015KT 29/17 A3004 RMK A01 T02900173  RH  049%=      5-min Rain = 0
KTAS 021551Z 20015KT 29/17 A3004 RMK A01 T02900174  RH  050%=      5-min Rain = 0
KTAS 021552Z 20011KT 29/17 A3004 RMK A01 T02890173  RH  050%=      5-min Rain = 0
KTAS 021553Z 21014KT 29/17 A3004 RMK A01 T02900174  RH  050%=      5-min Rain = 0
KTAS 021554Z 19013KT 29/18 A3004 RMK A01 T02920176  RH  050%=      5-min Rain = 0
KTAS 021555Z 18014KT 29/17 A3004 RMK A01 T02940174  RH  049%=      5-min Rain = 0
KTAS 021556Z 18014KT 29/17 A3004 RMK A01 T02930171  RH  048%=      5-min Rain = 0
KTAS 021557Z 18011KT 29/17 A3004 RMK A01 T02920172  RH  048%=      5-min Rain = 0
KTAS 021558Z 17015KT 29/17 A3004 RMK A01 T02940173  RH  048%=      5-min Rain = 0
KTAS 021559Z 17016KT 29/17 A3004 RMK A01 T02940172  RH  048%=      5-min Rain = 0
KTAS 021600Z 19013KT 29/17 A3004 RMK A01 T02940171  RH  047%=      5-min Rain = 0
KTAS 021601Z 18011KT 29/17 A3004 RMK A01 T02910171  RH  048%=      5-min Rain = 0
KTAS 021602Z 17014KT 29/17 A3004 RMK A01 T02940173  RH  048%=      5-min Rain = 0
KTAS 021603Z 19011KT 30/18 A3004 RMK A01 T02980176  RH  048%=      5-min Rain = 0
KTAS 021604Z 18012KT 30/17 A3004 RMK A01 T02990174  RH  047%=      5-min Rain = 0
KTAS 021605Z 18012KT 30/17 A3004 RMK A01 T03000172  RH  046%=      5-min Rain = 0
KTAS 021606Z 18014KT 30/17 A3004 RMK A01 T02990172  RH  046%=      5-min Rain = 0
KTAS 021607Z 17010KT 30/17 A3004 RMK A01 T02980171  RH  046%=      5-min Rain = 0
KTAS 021608Z 18011KT 30/17 A3004 RMK A01 T03000173  RH  046%=      5-min Rain = 0
KTAS 021609Z 19013KT 30/17 A3004 RMK A01 T03010172  RH  046%=      5-min Rain = 0
KTAS 021610Z 17012KT 30/17 A3004 RMK A01 T03000172  RH  046%=      5-min Rain = 0
KTAS 021611Z 17010KT 30/17 A3004 RMK A01 T03010172  RH  046%=      5-min Rain = 0
KTAS 021612Z 17014G19KT 30/17 A3004 RMK A01 T03010171  RH  046%=      5-min Rain = 0
KTAS 021613Z 19014KT 30/17 A3004 RMK A01 T03000173  RH  046%=      5-min Rain = 0
KTAS 021614Z 19015KT 30/17 A3004 RMK A01 T02990170  RH  046%=      5-min Rain = 0
KTAS 021615Z 18015KT 30/17 A3004 RMK A01 T02960171  RH  047%=      5-min Rain = 0
KTAS 021616Z 19015G20KT 30/17 A3004 RMK A01 T02980171  RH  047%=      5-min Rain = 0
KTAS 021617Z 20012KT 30/17 A3004 RMK A01 T02990173  RH  047%=      5-min Rain = 0
KTAS 021618Z 21012KT 30/17 A3004 RMK A01 T02990171  RH  046%=      5-min Rain = 0
KTAS 021619Z 19012KT 30/17 A3004 RMK A01 T02990172  RH  046%=      5-min Rain = 0
KTAS 021620Z 19014KT 30/17 A3004 RMK A01 T02990172  RH  046%=      5-min Rain = 0
KTAS 021621Z 19014KT 30/17 A3004 RMK A01 T03000171  RH  046%=      5-min Rain = 0
KTAS 021622Z 18010KT 30/17 A3004 RMK A01 T02980169  RH  046%=      5-min Rain = 0
KTAS 021623Z 17010KT 30/17 A3004 RMK A01 T02980171  RH  047%=      5-min Rain = 0
KTAS 021624Z 17010KT 30/17 A3004 RMK A01 T03000173  RH  046%=      5-min Rain = 0
KTAS 021625Z 18011KT 30/17 A3004 RMK A01 T03030173  RH  046%=      5-min Rain = 0
KTAS 021626Z 19014KT 30/17 A3004 RMK A01 T03020171  RH  045%=      5-min Rain = 0
KTAS 021627Z 17013KT 30/17 A3004 RMK A01 T03000169  RH  045%=      5-min Rain = 0
KTAS 021628Z 17012KT 30/17 A3004 RMK A01 T02980169  RH  046%=      5-min Rain = 0
KTAS 021629Z 18013KT 30/17 A3004 RMK A01 T02990171  RH  046%=      5-min Rain = 0
KTAS 021630Z 17013KT 30/17 A3004 RMK A01 T03010171  RH  046%=      5-min Rain = 0
KTAS 021631Z 17012KT 30/17 A3004 RMK A01 T03010171  RH  046%=      5-min Rain = 0
KTAS 021632Z 18014KT 30/17 A3004 RMK A01 T03030173  RH  046%=      5-min Rain = 0
KTAS 021633Z 17015KT 30/17 A3004 RMK A01 T03040172  RH  045%=      5-min Rain = 0
KTAS 021634Z 19011KT 30/17 A3004 RMK A01 T03040173  RH  045%=      5-min Rain = 0
KTAS 021635Z 20012KT 30/17 A3004 RMK A01 T03040173  RH  045%=      5-min Rain = 0
KTAS 021636Z 19010KT 30/17 A3004 RMK A01 T03040173  RH  046%=      5-min Rain = 0
KTAS 021637Z 17011KT 31/17 A3004 RMK A01 T03050174  RH  045%=      5-min Rain = 0
KTAS 021638Z 19013KT 31/18 A3004 RMK A01 T03090176  RH  045%=      5-min Rain = 0
KTAS 021639Z 17014KT 31/17 A3004 RMK A01 T03080173  RH  044%=      5-min Rain = 0
KTAS 021640Z 19012G17KT 31/17 A3004 RMK A01 T03080174  RH  045%=      5-min Rain = 0
KTAS 021641Z 19011KT 31/17 A3004 RMK A01 T03070173  RH  045%=      5-min Rain = 0
KTAS 021642Z 19008KT 31/17 A3004 RMK A01 T03060172  RH  045%=      5-min Rain = 0
KTAS 021643Z 18007KT 31/17 A3004 RMK A01 T03070174  RH  045%=      5-min Rain = 0
KTAS 021644Z 16009KT 31/17 A3004 RMK A01 T03070174  RH  045%=      5-min Rain = 0
KTAS 021645Z 18010G15KT 31/17 A3004 RMK A01 T03070173  RH  045%=      5-min Rain = 0
KTAS 021646Z 17011KT 31/18 A3004 RMK A01 T03090176  RH  045%=      5-min Rain = 0
KTAS 021647Z 16014KT 31/18 A3004 RMK A01 T03120175  RH  044%=      5-min Rain = 0
KTAS 021648Z 16011KT 31/17 A3004 RMK A01 T03100173  RH  044%=      5-min Rain = 0
KTAS 021649Z 18011KT 31/18 A3004 RMK A01 T03100175  RH  045%=      5-min Rain = 0
KTAS 021650Z 19012KT 31/18 A3004 RMK A01 T03130179  RH  045%=      5-min Rain = 0
KTAS 021651Z 17015KT 31/17 A3004 RMK A01 T03120174  RH  044%=      5-min Rain = 0
KTAS 021652Z 18013KT 31/17 A3004 RMK A01 T03090173  RH  044%=      5-min Rain = 0
KTAS 021653Z 19012KT 31/17 A3004 RMK A01 T03080174  RH  045%=      5-min Rain = 0
KTAS 021654Z 18010KT 31/18 A3004 RMK A01 T03070175  RH  045%=      5-min Rain = 0
KTAS 021655Z 18011KT 31/18 A3004 RMK A01 T03100176  RH  045%=      5-min Rain = 0
KTAS 021656Z 17010KT 31/18 A3004 RMK A01 T03110177  RH  045%=      5-min Rain = 0
KTAS 021657Z 16010KT 31/18 A3004 RMK A01 T03130175  RH  044%=      5-min Rain = 0
KTAS 021658Z 17007KT 31/17 A3004 RMK A01 T03110174  RH  044%=      5-min Rain = 0
KTAS 021659Z 16009KT 31/18 A3004 RMK A01 T03110177  RH  045%=      5-min Rain = 0
KTAS 021700Z 17014KT 31/18 A3004 RMK A01 T03140177  RH  044%=      5-min Rain = 0
KTAS 021701Z 19014KT 31/18 A3004 RMK A01 T03140176  RH  044%=      5-min Rain = 0
KTAS 021702Z 17011KT 31/18 A3004 RMK A01 T03120175  RH  044%=      5-min Rain = 0
KTAS 021703Z 17011KT 31/18 A3004 RMK A01 T03120176  RH  044%=      5-min Rain = 0
KTAS 021704Z 16010KT 31/18 A3004 RMK A01 T03120175  RH  044%=      5-min Rain = 0
KTAS 021705Z 17010KT 31/18 A3004 RMK A01 T03130177  RH  044%=      5-min Rain = 0
KTAS 021706Z 19009KT 32/18 A3004 RMK A01 T03150177  RH  044%=      5-min Rain = 0
KTAS 021707Z 17009KT 32/18 A3004 RMK A01 T03170179  RH  044%=      5-min Rain = 0
KTAS 021708Z 18012KT 32/18 A3004 RMK A01 T03170177  RH  043%=      5-min Rain = 0
KTAS 021709Z 18009KT 32/18 A3004 RMK A01 T03180177  RH  043%=      5-min Rain = 0
KTAS 021710Z 19010KT 32/18 A3004 RMK A01 T03180177  RH  043%=      5-min Rain = 0
KTAS 021711Z 18011KT 32/18 A3004 RMK A01 T03170176  RH  043%=      5-min Rain = 0
KTAS 021712Z 17011KT 32/18 A3004 RMK A01 T03150175  RH  043%=      5-min Rain = 0
KTAS 021713Z 17014KT 32/18 A3004 RMK A01 T03150175  RH  043%=      5-min Rain = 0
KTAS 021714Z 17011KT 32/18 A3004 RMK A01 T03160176  RH  043%=      5-min Rain = 0
KTAS 021715Z 16010KT 32/18 A3004 RMK A01 T03190179  RH  043%=      5-min Rain = 0
KTAS 021716Z 17012KT 32/18 A3004 RMK A01 T03210179  RH  043%=      5-min Rain = 0
KTAS 021717Z 17009KT 32/18 A3004 RMK A01 T03240180  RH  042%=      5-min Rain = 0
KTAS 021718Z 20009KT 33/18 A3004 RMK A01 T03260180  RH  042%=      5-min Rain = 0
KTAS 021719Z 18008KT 32/18 A3004 RMK A01 T03230177  RH  042%=      5-min Rain = 0
KTAS 021720Z 18010KT 32/18 A3004 RMK A01 T03220176  RH  042%=      5-min Rain = 0
KTAS 021721Z 16009KT 32/18 A3004 RMK A01 T03220178  RH  043%=      5-min Rain = 0
KTAS 021722Z 17010KT 32/18 A3004 RMK A01 T03240177  RH  042%=      5-min Rain = 0
KTAS 021723Z 17008KT 32/18 A3004 RMK A01 T03210175  RH  042%=      5-min Rain = 0
KTAS 021724Z 19009KT 32/18 A3003 RMK A01 T03210179  RH  043%=      5-min Rain = 0
KTAS 021725Z 17010KT 32/18 A3004 RMK A01 T03240179  RH  042%=      5-min Rain = 0
KTAS 021726Z 18013KT 32/18 A3004 RMK A01 T03240176  RH  041%=      5-min Rain = 0
KTAS 021727Z 17010G15KT 32/18 A3004 RMK A01 T03210175  RH  042%=      5-min Rain = 0
KTAS 021728Z 18008KT 32/18 A3004 RMK A01 T03210176  RH  042%=      5-min Rain = 0
KTAS 021729Z 17012KT 32/18 A3004 RMK A01 T03230178  RH  042%=      5-min Rain = 0
KTAS 021730Z 18011KT 32/17 A3004 RMK A01 T03210174  RH  041%=      5-min Rain = 0
KTAS 021731Z 18010KT 32/18 A3004 RMK A01 T03200176  RH  042%=      5-min Rain = 0
KTAS 021732Z 19011KT 32/18 A3004 RMK A01 T03220177  RH  042%=      5-min Rain = 0
KTAS 021733Z 19010KT 32/18 A3004 RMK A01 T03190176  RH  042%=      5-min Rain = 0
KTAS 021734Z 21013KT 32/18 A3004 RMK A01 T03210178  RH  043%=      5-min Rain = 0
KTAS 021735Z 21011KT 32/18 A3004 RMK A01 T03200176  RH  042%=      5-min Rain = 0
KTAS 021736Z 21010KT 32/17 A3004 RMK A01 T03190174  RH  042%=      5-min Rain = 0
KTAS 021737Z 19009KT 32/18 A3004 RMK A01 T03180177  RH  043%=      5-min Rain = 0
KTAS 021738Z 21011KT 32/18 A3004 RMK A01 T03220177  RH  042%=      5-min Rain = 0
KTAS 021739Z 21010KT 32/18 A3004 RMK A01 T03200176  RH  042%=      5-min Rain = 0
KTAS 021740Z 20009KT 32/18 A3004 RMK A01 T03200175  RH  042%=      5-min Rain = 0
KTAS 021741Z 21011KT 32/18 A3004 RMK A01 T03200176  RH  042%=      5-min Rain = 0
KTAS 021742Z 20010KT 32/18 A3004 RMK A01 T03180175  RH  043%=      5-min Rain = 0
KTAS 021743Z 18013KT 32/18 A3004 RMK A01 T03180177  RH  043%=      5-min Rain = 0
KTAS 021744Z 19010KT 32/18 A3004 RMK A01 T03200177  RH  042%=      5-min Rain = 0
KTAS 021745Z 19009KT 32/18 A3004 RMK A01 T03210176  RH  042%=      5-min Rain = 0
KTAS 021746Z 20012KT 32/18 A3003 RMK A01 T03200176  RH  042%=      5-min Rain = 0
KTAS 021747Z 20010KT 32/18 A3004 RMK A01 T03210175  RH  042%=      5-min Rain = 0
KTAS 021748Z 19008KT 32/18 A3004 RMK A01 T03220176  RH  042%=      5-min Rain = 0
KTAS 021749Z 19010G15KT 33/18 A3003 RMK A01 T03250176  RH  041%=      5-min Rain = 0
KTAS 021750Z 18012KT 33/18 A3003 RMK A01 T03250175  RH  041%=      5-min Rain = 0
KTAS 021751Z 18010KT 33/18 A3003 RMK A01 T03250175  RH  041%=      5-min Rain = 0
KTAS 021752Z 18009KT 33/18 A3003 RMK A01 T03270176  RH  041%=      5-min Rain = 0
KTAS 021753Z 17008KT 33/17 A3003 RMK A01 T03280173  RH  040%=      5-min Rain = 0
KTAS 021754Z 17009KT 33/17 A3003 RMK A01 T03260172  RH  040%=      5-min Rain = 0
KTAS 021755Z 17014KT 33/17 A3003 RMK A01 T03270174  RH  040%=      5-min Rain = 0
KTAS 021756Z 17011KT 33/18 A3003 RMK A01 T03270175  RH  040%=      5-min Rain = 0
KTAS 021757Z 18011KT 33/18 A3003 RMK A01 T03270176  RH  040%=      5-min Rain = 0
KTAS 021758Z 16012KT 33/18 A3003 RMK A01 T03270175  RH  040%=      5-min Rain = 0
KTAS 021759Z 16010KT 33/17 A3003 RMK A01 T03270174  RH  040%=      5-min Rain = 0
KTAS 021800Z 18007KT 33/17 A3003 RMK A01 T03280173  RH  040%=      5-min Rain = 0
KTAS 021801Z 17006KT 33/17 A3003 RMK A01 T03280173  RH  040%=      5-min Rain = 0
KTAS 021802Z 14008KT 33/18 A3003 RMK A01 T03290175  RH  040%=      5-min Rain = 0
KTAS 021803Z 15009KT 33/18 A3003 RMK A01 T03300175  RH  040%=      5-min Rain = 0
KTAS 021804Z 12005KT 33/17 A3003 RMK A01 T03270173  RH  040%=      5-min Rain = 0
KTAS 021805Z 14006KT 33/18 A3003 RMK A01 T03250176  RH  041%=      5-min Rain = 0
KTAS 021806Z 13007KT 33/17 A3003 RMK A01 T03250174  RH  041%=      5-min Rain = 0
KTAS 021807Z 14007G12KT 33/18 A3003 RMK A01 T03270178  RH  041%=      5-min Rain = 0
KTAS 021808Z 16011KT 33/18 A3003 RMK A01 T03310178  RH  040%=      5-min Rain = 0
KTAS 021809Z 17011KT 33/18 A3003 RMK A01 T03340175  RH  039%=      5-min Rain = 0
KTAS 021810Z 18008G14KT 33/17 A3003 RMK A01 T03340172  RH  038%=      5-min Rain = 0
KTAS 021811Z 16012KT 33/17 A3003 RMK A01 T03340171  RH  038%=      5-min Rain = 0
KTAS 021812Z 17012KT 33/17 A3003 RMK A01 T03340170  RH  038%=      5-min Rain = 0
KTAS 021813Z 17011KT 33/17 A3003 RMK A01 T03330171  RH  038%=      5-min Rain = 0
KTAS 021814Z 18010KT 33/17 A3003 RMK A01 T03310171  RH  038%=      5-min Rain = 0
KTAS 021815Z 17011KT 33/17 A3003 RMK A01 T03300171  RH  039%=      5-min Rain = 0
KTAS 021816Z 17009KT 33/17 A3003 RMK A01 T03330173  RH  039%=      5-min Rain = 0
KTAS 021817Z 18008KT 33/17 A3003 RMK A01 T03340171  RH  038%=      5-min Rain = 0
KTAS 021818Z 19006KT 33/17 A3003 RMK A01 T03330168  RH  037%=      5-min Rain = 0
KTAS 021819Z 19007G12KT 33/17 A3003 RMK A01 T03320168  RH  038%=      5-min Rain = 0
KTAS 021820Z 19009KT 33/17 A3003 RMK A01 T03320173  RH  039%=      5-min Rain = 0
KTAS 021821Z 20008KT 33/18 A3003 RMK A01 T03320175  RH  039%=      5-min Rain = 0
KTAS 021822Z 21007KT 33/17 A3003 RMK A01 T03320173  RH  039%=      5-min Rain = 0
KTAS 021823Z 22008KT 33/17 A3003 RMK A01 T03310174  RH  039%=      5-min Rain = 0
KTAS 021824Z 21011KT 33/18 A3002 RMK A01 T03320175  RH  039%=      5-min Rain = 0
KTAS 021825Z 18008KT 33/18 A3003 RMK A01 T03340176  RH  039%=      5-min Rain = 0
KTAS 021826Z 18008KT 33/17 A3003 RMK A01 T03330172  RH  038%=      5-min Rain = 0
KTAS 021827Z 19009KT 33/17 A3002 RMK A01 T03300173  RH  039%=      5-min Rain = 0
KTAS 021828Z 18010G15KT 33/17 A3002 RMK A01 T03280174  RH  040%=      5-min Rain = 0
KTAS 021829Z 16012KT 33/18 A3002 RMK A01 T03320178  RH  040%=      5-min Rain = 0
KTAS 021830Z 15011KT 33/18 A3002 RMK A01 T03340177  RH  039%=      5-min Rain = 0
KTAS 021831Z 18012KT 33/18 A3003 RMK A01 T03290175  RH  040%=      5-min Rain = 0
KTAS 021832Z 19007KT 33/18 A3003 RMK A01 T03260175  RH  041%=      5-min Rain = 0
KTAS 021833Z 18005KT 33/18 A3002 RMK A01 T03290179  RH  041%=      5-min Rain = 0
KTAS 021834Z 17008KT 33/18 A3002 RMK A01 T03330178  RH  040%=      5-min Rain = 0
KTAS 021835Z 17009KT 34/18 A3002 RMK A01 T03360175  RH  038%=      5-min Rain = 0
KTAS 021836Z 16010G15KT 34/18 A3002 RMK A01 T03360176  RH  039%=      5-min Rain = 0
KTAS 021837Z 16012KT 34/18 A3002 RMK A01 T03370176  RH  038%=      5-min Rain = 0
KTAS 021838Z 16009KT 34/17 A3002 RMK A01 T03360174  RH  038%=      5-min Rain = 0
KTAS 021839Z 14009KT 34/17 A3002 RMK A01 T03350174  RH  038%=      5-min Rain = 0
KTAS 021840Z 13007KT 34/18 A3002 RMK A01 T03360175  RH  038%=      5-min Rain = 0
KTAS 021841Z 11008KT 34/17 A3002 RMK A01 T03370172  RH  037%=      5-min Rain = 0
KTAS 021842Z 14007KT 34/17 A3002 RMK A01 T03370170  RH  037%=      5-min Rain = 0
KTAS 021843Z 15005G10KT 34/17 A3002 RMK A01 T03360171  RH  037%=      5-min Rain = 0
KTAS 021844Z 13012KT 34/17 A3002 RMK A01 T03380172  RH  037%=      5-min Rain = 0
KTAS 021845Z 14012KT 34/17 A3002 RMK A01 T03390170  RH  037%=      5-min Rain = 0
KTAS 021846Z 14010KT 34/17 A3002 RMK A01 T03390167  RH  036%=      5-min Rain = 0
KTAS 021847Z 14010KT 34/17 A3002 RMK A01 T03370165  RH  036%=      5-min Rain = 0
KTAS 021848Z 16007KT 34/16 A3002 RMK A01 T03360164  RH  036%=      5-min Rain = 0
KTAS 021849Z 14004KT 33/16 A3002 RMK A01 T03340162  RH  036%=      5-min Rain = 0
KTAS 021850Z 16007KT 34/16 A3002 RMK A01 T03350163  RH  036%=      5-min Rain = 0
KTAS 021851Z 15006KT 34/16 A3002 RMK A01 T03360160  RH  035%=      5-min Rain = 0
KTAS 021852Z 13004KT 34/16 A3002 RMK A01 T03350161  RH  035%=      5-min Rain = 0
KTAS 021853Z 13005KT 34/17 A3002 RMK A01 T03370166  RH  036%=      5-min Rain = 0
KTAS 021854Z 14005KT 34/16 A3002 RMK A01 T03350163  RH  036%=      5-min Rain = 0
KTAS 021855Z 16013KT 33/17 A3002 RMK A01 T03320166  RH  037%=      5-min Rain = 0
KTAS 021856Z 17009KT 33/17 A3002 RMK A01 T03320169  RH  038%=      5-min Rain = 0
KTAS 021857Z 17006KT 33/17 A3002 RMK A01 T03330169  RH  037%=      5-min Rain = 0
KTAS 021858Z 15007KT 33/17 A3002 RMK A01 T03340171  RH  038%=      5-min Rain = 0
KTAS 021859Z 15008G13KT 34/18 A3002 RMK A01 T03390176  RH  038%=      5-min Rain = 0
KTAS 021900Z 15010KT 34/17 A3002 RMK A01 T03440167  RH  035%=      5-min Rain = 0
KTAS 021901Z 15010KT 35/17 A3002 RMK A01 T03450166  RH  035%=      5-min Rain = 0
KTAS 021902Z 13010KT 34/16 A3002 RMK A01 T03440160  RH  033%=      5-min Rain = 0
KTAS 021903Z 10007G12KT 34/16 A3002 RMK A01 T03380158  RH  034%=      5-min Rain = 0
KTAS 021904Z 10006KT 34/16 A3002 RMK A01 T03370160  RH  035%=      5-min Rain = 0
KTAS 021905Z 13006KT 34/16 A3002 RMK A01 T03390163  RH  035%=      5-min Rain = 0
KTAS 021906Z 17007KT 34/16 A3002 RMK A01 T03400164  RH  035%=      5-min Rain = 0
KTAS 021907Z 15008G13KT 34/17 A3002 RMK A01 T03420170  RH  036%=      5-min Rain = 0
KTAS 021908Z 16009KT 35/17 A3002 RMK A01 T03450167  RH  035%=      5-min Rain = 0
KTAS 021909Z 16009KT 34/17 A3002 RMK A01 T03430171  RH  036%=      5-min Rain = 0
KTAS 021910Z 16010KT 34/17 A3002 RMK A01 T03430172  RH  036%=      5-min Rain = 0
KTAS 021911Z 15005KT 34/17 A3001 RMK A01 T03420171  RH  036%=      5-min Rain = 0
KTAS 021912Z 16003KT 34/17 A3001 RMK A01 T03400168  RH  036%=      5-min Rain = 0
KTAS 021913Z 12005KT 34/17 A3001 RMK A01 T03390170  RH  037%=      5-min Rain = 0
KTAS 021914Z 13006KT 34/17 A3001 RMK A01 T03390170  RH  037%=      5-min Rain = 0
KTAS 021915Z 12005KT 34/17 A3001 RMK A01 T03380171  RH  037%=      5-min Rain = 0
KTAS 021916Z 15007KT 34/17 A3001 RMK A01 T03380171  RH  037%=      5-min Rain = 0
KTAS 021917Z 14009KT 34/18 A3001 RMK A01 T03410175  RH  037%=      5-min Rain = 0
KTAS 021918Z 11008KT 34/17 A3001 RMK A01 T03430172  RH  036%=      5-min Rain = 0
KTAS 021919Z 10005KT 34/17 A3001 RMK A01 T03400171  RH  036%=      5-min Rain = 0
KTAS 021920Z 14008KT 34/18 A3001 RMK A01 T03430176  RH  037%=      5-min Rain = 0
KTAS 021921Z 17010KT 35/18 A3001 RMK A01 T03460175  RH  036%=      5-min Rain = 0
KTAS 021922Z 17010KT 35/17 A3001 RMK A01 T03470172  RH  035%=      5-min Rain = 0
KTAS 021923Z 16006KT 35/17 A3001 RMK A01 T03470174  RH  036%=      5-min Rain = 0
KTAS 021924Z 11005KT 35/17 A3001 RMK A01 T03500173  RH  035%=      5-min Rain = 0
KTAS 021925Z 11006KT 35/17 A3001 RMK A01 T03470173  RH  036%=      5-min Rain = 0
KTAS 021926Z 12007KT 35/17 A3001 RMK A01 T03490174  RH  036%=      5-min Rain = 0
KTAS 021927Z 12006KT 35/17 A3001 RMK A01 T03490172  RH  035%=      5-min Rain = 0
KTAS 021928Z 13009KT 35/17 A3001 RMK A01 T03480174  RH  036%=      5-min Rain = 0
KTAS 021929Z 13012KT 35/16 A3001 RMK A01 T03500164  RH  033%=      5-min Rain = 0
KTAS 021930Z 15010G15KT 35/17 A3001 RMK A01 T03490165  RH  034%=      5-min Rain = 0
KTAS 021931Z 16013KT 35/17 A3001 RMK A01 T03500169  RH  034%=      5-min Rain = 0
KTAS 021932Z 17012KT 35/17 A3001 RMK A01 T03500168  RH  034%=      5-min Rain = 0
KTAS 021933Z 16011G16KT 35/17 A3001 RMK A01 T03490168  RH  034%=      5-min Rain = 0
KTAS 021934Z 16010KT 35/17 A3001 RMK A01 T03470165  RH  034%=      5-min Rain = 0
KTAS 021935Z 15008KT 35/17 A3001 RMK A01 T03450167  RH  035%=      5-min Rain = 0
KTAS 021936Z 15008KT 35/17 A3001 RMK A01 T03490170  RH  035%=      5-min Rain = 0
KTAS 021937Z 15006KT 35/17 A3001 RMK A01 T03480165  RH  034%=      5-min Rain = 0
KTAS 021938Z 14003KT 35/17 A3001 RMK A01 T03500166  RH  034%=      5-min Rain = 0
KTAS 021939Z 13003KT 35/16 A3001 RMK A01 T03500162  RH  033%=      5-min Rain = 0
KTAS 021940Z 15007KT 35/17 A30 RMK A01 T03500171  RH  035%=      5-min Rain = 0
KTAS 021941Z 13010KT 35/17 A30 RMK A01 T03520172  RH  035%=      5-min Rain = 0
KTAS 021942Z 16012KT 35/18 A30 RMK A01 T03530176  RH  035%=      5-min Rain = 0
KTAS 021943Z 16010KT 35/17 A30 RMK A01 T03540174  RH  035%=      5-min Rain = 0
KTAS 021944Z 16009KT 35/17 A30 RMK A01 T03540172  RH  034%=      5-min Rain = 0
KTAS 021945Z 17007KT 35/17 A30 RMK A01 T03520169  RH  034%=      5-min Rain = 0
KTAS 021946Z 18009KT 35/17 A30 RMK A01 T03490168  RH  034%=      5-min Rain = 0
KTAS 021947Z 16009KT 35/17 A30 RMK A01 T03480170  RH  035%=      5-min Rain = 0
KTAS 021948Z 14011G17KT 35/18 A30 RMK A01 T03530175  RH  035%=      5-min Rain = 0
KTAS 021949Z 13014KT 35/17 A30 RMK A01 T03540173  RH  034%=      5-min Rain = 0
KTAS 021950Z 14014KT 35/17 A30 RMK A01 T03480172  RH  035%=      5-min Rain = 0
KTAS 021951Z 13013KT 34/17 A30 RMK A01 T03440172  RH  036%=      5-min Rain = 0
KTAS 021952Z 12011KT 35/17 A30 RMK A01 T03450172  RH  036%=      5-min Rain = 0
KTAS 021953Z 12010KT 35/17 A30 RMK A01 T03450174  RH  036%=      5-min Rain = 0
KTAS 021954Z 11008KT 35/18 A30 RMK A01 T03450175  RH  036%=      5-min Rain = 0
KTAS 021955Z 10005KT 34/17 A30 RMK A01 T03420171  RH  036%=      5-min Rain = 0
KTAS 021956Z 12006KT 34/17 A30 RMK A01 T03380170  RH  037%=      5-min Rain = 0
KTAS 021957Z 11009KT 34/17 A30 RMK A01 T03350171  RH  038%=      5-min Rain = 0
KTAS 021958Z 10012KT 33/17 A30 RMK A01 T03330171  RH  038%=      5-min Rain = 0
KTAS 021959Z 11009KT 33/17 A30 RMK A01 T03320169  RH  038%=      5-min Rain = 0
KTAS 022000Z 12010G15KT 33/17 A30 RMK A01 T03320170  RH  038%=      5-min Rain = 0
KTAS 022001Z 12011KT 34/17 A30 RMK A01 T03360173  RH  038%=      5-min Rain = 0
KTAS 022002Z 12009KT 34/17 A30 RMK A01 T03390173  RH  037%=      5-min Rain = 0
KTAS 022003Z 12011KT 34/17 A30 RMK A01 T03420174  RH  037%=      5-min Rain = 0
KTAS 022004Z 14011KT 34/17 A30 RMK A01 T03400172  RH  037%=      5-min Rain = 0
KTAS 022005Z 14010KT 34/18 A30 RMK A01 T03390175  RH  038%=      5-min Rain = 0
KTAS 022006Z 10009KT 34/18 A30 RMK A01 T03420178  RH  038%=      5-min Rain = 0
KTAS 022007Z 10010G15KT 34/18 A30 RMK A01 T03420177  RH  038%=      5-min Rain = 0
KTAS 022008Z 10011KT 34/18 A30 RMK A01 T03390175  RH  038%=      5-min Rain = 0
KTAS 022009Z 11010KT 33/17 A30 RMK A01 T03340170  RH  038%=      5-min Rain = 0
KTAS 022010Z 10009KT 33/17 A30 RMK A01 T03310172  RH  039%=      5-min Rain = 0
KTAS 022011Z 10009KT 33/17 A30 RMK A01 T03280172  RH  039%=      5-min Rain = 0
KTAS 022012Z 12008KT 33/18 A30 RMK A01 T03280175  RH  040%=      5-min Rain = 0
KTAS 022013Z 12008KT 33/17 A30 RMK A01 T03280173  RH  040%=      5-min Rain = 0
KTAS 022014Z 12008KT 33/17 A30 RMK A01 T03280174  RH  040%=      5-min Rain = 0
KTAS 022015Z 11010KT 33/17 A30 RMK A01 T03280174  RH  040%=      5-min Rain = 0
KTAS 022016Z 12009KT 33/17 A30 RMK A01 T03270173  RH  040%=      5-min Rain = 0
KTAS 022017Z 13009KT 33/17 A30 RMK A01 T03260174  RH  040%=      5-min Rain = 0
KTAS 022018Z 13011KT 33/17 A30 RMK A01 T03260174  RH  040%=      5-min Rain = 0
KTAS 022019Z 13013KT 33/17 A30 RMK A01 T03260174  RH  040%=      5-min Rain = 0
KTAS 022020Z 14013KT 33/18 A30 RMK A01 T03290175  RH  040%=      5-min Rain = 0
KTAS 022021Z 13010G15KT 33/17 A30 RMK A01 T03310174  RH  039%=      5-min Rain = 0
KTAS 022022Z 13012KT 33/18 A2999 RMK A01 T03320177  RH  040%=      5-min Rain = 0
KTAS 022023Z 11010KT 33/18 A2999 RMK A01 T03340176  RH  039%=      5-min Rain = 0
KTAS 022024Z 10008KT 34/18 A2999 RMK A01 T03360176  RH  039%=      5-min Rain = 0
KTAS 022025Z 10006KT 34/18 A2999 RMK A01 T03400178  RH  038%=      5-min Rain = 0
KTAS 022026Z 11006KT 34/18 A2999 RMK A01 T03430176  RH  037%=      5-min Rain = 0
KTAS 022027Z 13010KT 35/18 A2999 RMK A01 T03470181  RH  038%=      5-min Rain = 0
KTAS 022028Z 14010KT 35/18 A2999 RMK A01 T03510177  RH  036%=      5-min Rain = 0
KTAS 022029Z 14007KT 35/17 A2999 RMK A01 T03500165  RH  033%=      5-min Rain = 0
KTAS 022030Z 11008KT 35/17 A2999 RMK A01 T03510170  RH  034%=      5-min Rain = 0
KTAS 022031Z 10008G13KT 35/18 A2999 RMK A01 T03500176  RH  036%=      5-min Rain = 0
KTAS 022032Z 13013G19KT 35/17 A2999 RMK A01 T03480174  RH  036%=      5-min Rain = 0
KTAS 022033Z 14009G15KT 35/17 A2999 RMK A01 T03500168  RH  034%=      5-min Rain = 0
KTAS 022034Z 14011KT 35/17 A2999 RMK A01 T03500168  RH  034%=      5-min Rain = 0
KTAS 022035Z 11009KT 35/17 A2999 RMK A01 T03490173  RH  035%=      5-min Rain = 0
KTAS 022036Z 14011KT 35/17 A2999 RMK A01 T03490171  RH  035%=      5-min Rain = 0
KTAS 022037Z 13009KT 35/17 A2999 RMK A01 T03490168  RH  034%=      5-min Rain = 0
KTAS 022038Z 12007KT 35/17 A2999 RMK A01 T03470174  RH  036%=      5-min Rain = 0
KTAS 022039Z 12012G20KT 35/17 A2999 RMK A01 T03490171  RH  035%=      5-min Rain = 0
KTAS 022040Z 13017KT 35/16 A2999 RMK A01 T03480162  RH  033%=      5-min Rain = 0
KTAS 022041Z 12013KT 35/16 A2999 RMK A01 T03480163  RH  033%=      5-min Rain = 0
KTAS 022042Z 13012KT 35/16 A2999 RMK A01 T03500164  RH  033%=      5-min Rain = 0
KTAS 022043Z 12015KT 35/16 A2999 RMK A01 T03490161  RH  033%=      5-min Rain = 0
KTAS 022044Z 13012KT 35/16 A2999 RMK A01 T03470160  RH  033%=      5-min Rain = 0
KTAS 022045Z 11008KT 35/16 A2999 RMK A01 T03450162  RH  034%=      5-min Rain = 0
KTAS 022046Z 10013KT 35/16 A2999 RMK A01 T03480163  RH  033%=      5-min Rain = 0
KTAS 022047Z 10011KT 35/16 A2999 RMK A01 T03470157  RH  032%=      5-min Rain = 0
KTAS 022048Z 10011KT 35/16 A2999 RMK A01 T03470157  RH  032%=      5-min Rain = 0
KTAS 022049Z 10012KT 35/15 A2999 RMK A01 T03450154  RH  032%=      5-min Rain = 0
KTAS 022050Z 10010KT 34/15 A2999 RMK A01 T03430153  RH  032%=      5-min Rain = 0
KTAS 022051Z 12007KT 34/15 A2999 RMK A01 T03430153  RH  032%=      5-min Rain = 0
KTAS 022052Z 13009KT 34/15 A2999 RMK A01 T03440151  RH  031%=      5-min Rain = 0
KTAS 022053Z 13012KT 34/15 A2999 RMK A01 T03440151  RH  031%=      5-min Rain = 0
KTAS 022054Z 11011G16KT 34/15 A2999 RMK A01 T03390147  RH  032%=      5-min Rain = 0
KTAS 022055Z 12009KT 34/15 A2999 RMK A01 T03350149  RH  033%=      5-min Rain = 0
KTAS 022056Z 12010KT 34/15 A2999 RMK A01 T03350150  RH  033%=      5-min Rain = 0
KTAS 022057Z 12008KT 34/15 A2999 RMK A01 T03350150  RH  033%=      5-min Rain = 0
KTAS 022058Z 12014KT 33/15 A2999 RMK A01 T03330152  RH  034%=      5-min Rain = 0
KTAS 022059Z 12011G17KT 33/15 A2999 RMK A01 T03310154  RH  035%=      5-min Rain = 0
KTAS 022100Z 11009KT 33/15 A2999 RMK A01 T03300154  RH  035%=      5-min Rain = 0
KTAS 022101Z 12009KT 33/16 A2999 RMK A01 T03310155  RH  035%=      5-min Rain = 0
KTAS 022102Z 13008KT 33/16 A2999 RMK A01 T03320155  RH  035%=      5-min Rain = 0
KTAS 022103Z 14014KT 33/15 A2999 RMK A01 T03310152  RH  034%=      5-min Rain = 0
KTAS 022104Z 13014KT 33/15 A2999 RMK A01 T03290151  RH  034%=      5-min Rain = 0
KTAS 022105Z 15013KT 33/15 A2999 RMK A01 T03280150  RH  034%=      5-min Rain = 0
KTAS 022106Z 14011KT 33/15 A2999 RMK A01 T03280150  RH  034%=      5-min Rain = 0
KTAS 022107Z 14010KT 33/15 A2999 RMK A01 T03270147  RH  034%=      5-min Rain = 0
KTAS 022108Z 14008G13KT 33/15 A2999 RMK A01 T03270150  RH  034%=      5-min Rain = 0
KTAS 022109Z 14011KT 33/15 A2999 RMK A01 T03310152  RH  034%=      5-min Rain = 0
KTAS 022110Z 16015G21KT 34/15 A2999 RMK A01 T03370148  RH  032%=      5-min Rain = 0
KTAS 022111Z 16013KT 34/14 A2999 RMK A01 T03410144  RH  031%=      5-min Rain = 0
KTAS 022112Z 15016G21KT 34/15 A2999 RMK A01 T03430145  RH  031%=      5-min Rain = 0
KTAS 022113Z 16016KT 34/14 A2999 RMK A01 T03440144  RH  030%=      5-min Rain = 0
KTAS 022114Z 16016KT 35/15 A2999 RMK A01 T03450145  RH  030%=      5-min Rain = 0
KTAS 022115Z 17017KT 35/15 A2999 RMK A01 T03460146  RH  030%=      5-min Rain = 0
KTAS 022116Z 16015KT 35/15 A2999 RMK A01 T03470149  RH  031%=      5-min Rain = 0
KTAS 022117Z 15017KT 35/15 A2999 RMK A01 T03480146  RH  030%=      5-min Rain = 0
KTAS 022118Z 16015KT 35/15 A2999 RMK A01 T03470146  RH  030%=      5-min Rain = 0
KTAS 022119Z 15011G16KT 35/15 A2999 RMK A01 T03460148  RH  031%=      5-min Rain = 0
KTAS 022120Z 15011KT 35/15 A2999 RMK A01 T03470150  RH  031%=      5-min Rain = 0
KTAS 022121Z 16011KT 35/15 A2999 RMK A01 T03480148  RH  030%=      5-min Rain = 0
KTAS 022122Z 15007KT 35/15 A2999 RMK A01 T03490146  RH  030%=      5-min Rain = 0
KTAS 022123Z 14008KT 35/15 A2999 RMK A01 T03490147  RH  030%=      5-min Rain = 0
KTAS 022124Z 13013KT 35/15 A2999 RMK A01 T03490148  RH  030%=      5-min Rain = 0
KTAS 022125Z 14011KT 35/15 A2999 RMK A01 T03470149  RH  031%=      5-min Rain = 0
KTAS 022126Z 16013G18KT 35/15 A2999 RMK A01 T03500153  RH  031%=      5-min Rain = 0
KTAS 022127Z 16011KT 35/15 A2999 RMK A01 T03510148  RH  030%=      5-min Rain = 0
KTAS 022128Z 16012KT 35/15 A2999 RMK A01 T03470147  RH  030%=      5-min Rain = 0
KTAS 022129Z 15012KT 35/15 A2999 RMK A01 T03460147  RH  030%=      5-min Rain = 0
KTAS 022130Z 15008G14KT 35/15 A2999 RMK A01 T03450147  RH  031%=      5-min Rain = 0
KTAS 022131Z 14010KT 35/15 A2999 RMK A01 T03460151  RH  031%=      5-min Rain = 0
KTAS 022132Z 15011KT 35/15 A2999 RMK A01 T03460149  RH  031%=      5-min Rain = 0
KTAS 022133Z 15010KT 35/15 A2998 RMK A01 T03470147  RH  030%=      5-min Rain = 0
KTAS 022134Z 15012KT 35/15 A2998 RMK A01 T03480147  RH  030%=      5-min Rain = 0
KTAS 022135Z 16012KT 35/15 A2998 RMK A01 T03510146  RH  029%=      5-min Rain = 0
KTAS 022136Z 15013G18KT 35/15 A2998 RMK A01 T03510145  RH  029%=      5-min Rain = 0
KTAS 022137Z 14015KT 35/14 A2998 RMK A01 T03510143  RH  029%=      5-min Rain = 0
KTAS 022138Z 14013KT 35/14 A2998 RMK A01 T03500139  RH  028%=      5-min Rain = 0
KTAS 022139Z 14011KT 35/14 A2998 RMK A01 T03480139  RH  029%=      5-min Rain = 0
KTAS 022140Z 13010KT 35/14 A2998 RMK A01 T03470137  RH  028%=      5-min Rain = 0
KTAS 022141Z 16007KT 35/14 A2998 RMK A01 T03490140  RH  029%=      5-min Rain = 0
KTAS 022142Z 15008KT 35/14 A2998 RMK A01 T03490139  RH  028%=      5-min Rain = 0
KTAS 022143Z 15009KT 35/14 A2998 RMK A01 T03490144  RH  029%=      5-min Rain = 0
KTAS 022144Z 15010KT 35/14 A2998 RMK A01 T03480144  RH  029%=      5-min Rain = 0
KTAS 022145Z 15010KT 35/14 A2998 RMK A01 T03460144  RH  030%=      5-min Rain = 0
KTAS 022146Z 14009KT 35/14 A2998 RMK A01 T03450143  RH  030%=      5-min Rain = 0
KTAS 022147Z 16012KT 34/14 A2998 RMK A01 T03440143  RH  030%=      5-min Rain = 0
KTAS 022148Z 15009KT 34/14 A2998 RMK A01 T03410143  RH  031%=      5-min Rain = 0
KTAS 022149Z 14007KT 34/14 A2998 RMK A01 T03380141  RH  031%=      5-min Rain = 0
KTAS 022150Z 16006KT 34/14 A2998 RMK A01 T03350139  RH  031%=      5-min Rain = 0
KTAS 022151Z 17009KT 33/14 A2998 RMK A01 T03330141  RH  032%=      5-min Rain = 0
KTAS 022152Z 16012KT 33/14 A2998 RMK A01 T03310141  RH  032%=      5-min Rain = 0
KTAS 022153Z 15009KT 33/14 A2998 RMK A01 T03310141  RH  032%=      5-min Rain = 0
KTAS 022154Z 15008KT 33/14 A2998 RMK A01 T03320142  RH  032%=      5-min Rain = 0
KTAS 022155Z 16009KT 33/14 A2998 RMK A01 T03340142  RH  032%=      5-min Rain = 0
KTAS 022156Z 16013KT 34/14 A2998 RMK A01 T03350143  RH  031%=      5-min Rain = 0
KTAS 022157Z 16014KT 34/14 A2998 RMK A01 T03360141  RH  031%=      5-min Rain = 0
KTAS 022158Z 17011KT 34/14 A2998 RMK A01 T03370140  RH  031%=      5-min Rain = 0
KTAS 022159Z 17012KT 34/14 A2997 RMK A01 T03390142  RH  031%=      5-min Rain = 0
KTAS 022200Z 17010G15KT 34/14 A2997 RMK A01 T03400140  RH  030%=      5-min Rain = 0
KTAS 022201Z 16007KT 34/14 A2997 RMK A01 T03390141  RH  030%=      5-min Rain = 0
KTAS 022202Z 16009KT 34/15 A2997 RMK A01 T03400146  RH  031%=      5-min Rain = 0
KTAS 022203Z 14010KT 34/15 A2997 RMK A01 T03440149  RH  031%=      5-min Rain = 0
KTAS 022204Z 15009KT 35/15 A2997 RMK A01 T03460146  RH  030%=      5-min Rain = 0
KTAS 022205Z 16008G13KT 35/15 A2997 RMK A01 T03470145  RH  030%=      5-min Rain = 0
KTAS 022206Z 19012KT 35/15 A2997 RMK A01 T03490149  RH  030%=      5-min Rain = 0
KTAS 022207Z 16011KT 35/15 A2997 RMK A01 T03510150  RH  030%=      5-min Rain = 0
KTAS 022208Z 15011KT 35/15 A2997 RMK A01 T03530149  RH  030%=      5-min Rain = 0
KTAS 022209Z 14011KT 35/15 A2997 RMK A01 T03510147  RH  030%=      5-min Rain = 0
KTAS 022210Z 15011G16KT 35/15 A2997 RMK A01 T03510150  RH  030%=      5-min Rain = 0
KTAS 022211Z 16008KT 35/15 A2997 RMK A01 T03540150  RH  030%=      5-min Rain = 0
KTAS 022212Z 17010KT 35/15 A2997 RMK A01 T03540151  RH  030%=      5-min Rain = 0
KTAS 022213Z 19012KT 35/15 A2997 RMK A01 T03530148  RH  029%=      5-min Rain = 0
KTAS 022214Z 18008KT 35/15 A2997 RMK A01 T03520154  RH  031%=      5-min Rain = 0
KTAS 022215Z 18013KT 36/15 A2997 RMK A01 T03550153  RH  030%=      5-min Rain = 0
KTAS 022216Z 17015KT 35/15 A2997 RMK A01 T03530149  RH  030%=      5-min Rain = 0
KTAS 022217Z 16014KT 35/15 A2998 RMK A01 T03520150  RH  030%=      5-min Rain = 0
KTAS 022218Z 16012KT 35/15 A2997 RMK A01 T03520148  RH  029%=      5-min Rain = 0
KTAS 022219Z 15014KT 35/15 A2997 RMK A01 T03500147  RH  030%=      5-min Rain = 0
KTAS 022220Z 16012KT 35/15 A2997 RMK A01 T03490145  RH  030%=      5-min Rain = 0
KTAS 022221Z 17010KT 35/15 A2997 RMK A01 T03470146  RH  030%=      5-min Rain = 0
KTAS 022222Z 16011KT 35/15 A2997 RMK A01 T03480151  RH  031%=      5-min Rain = 0
KTAS 022223Z 16011G16KT 35/15 A2998 RMK A01 T03520152  RH  030%=      5-min Rain = 0
KTAS 022224Z 15011KT 36/15 A2998 RMK A01 T03550151  RH  030%=      5-min Rain = 0
KTAS 022225Z 15013KT 35/15 A2997 RMK A01 T03530147  RH  029%=      5-min Rain = 0
KTAS 022226Z 13010KT 35/15 A2997 RMK A01 T03500145  RH  029%=      5-min Rain = 0
KTAS 022227Z 15010KT 35/15 A2998 RMK A01 T03480149  RH  030%=      5-min Rain = 0
KTAS 022228Z 17010G16KT 35/15 A2998 RMK A01 T03490151  RH  031%=      5-min Rain = 0
KTAS 022229Z 16013KT 35/15 A2998 RMK A01 T03500148  RH  030%=      5-min Rain = 0
KTAS 022230Z 15014KT 35/15 A2998 RMK A01 T03490150  RH  030%=      5-min Rain = 0
KTAS 022231Z 15009KT 35/15 A2998 RMK A01 T03480151  RH  031%=      5-min Rain = 0
KTAS 022232Z 14008KT 35/15 A2998 RMK A01 T03460150  RH  031%=      5-min Rain = 0
KTAS 022233Z 16011KT 35/15 A2997 RMK A01 T03450154  RH  032%=      5-min Rain = 0
KTAS 022234Z 18010KT 34/16 A2997 RMK A01 T03440155  RH  032%=      5-min Rain = 0
KTAS 022235Z 18012KT 34/16 A2998 RMK A01 T03430159  RH  033%=      5-min Rain = 0
KTAS 022236Z 18009KT 34/16 A2998 RMK A01 T03410159  RH  034%=      5-min Rain = 0
KTAS 022237Z 18012KT 34/16 A2998 RMK A01 T03390159  RH  034%=      5-min Rain = 0
KTAS 022238Z 18014KT 34/16 A2998 RMK A01 T03380157  RH  034%=      5-min Rain = 0
KTAS 022239Z 17010KT 34/15 A2998 RMK A01 T03360153  RH  034%=      5-min Rain = 0
KTAS 022240Z 17010KT 33/16 A2998 RMK A01 T03340155  RH  034%=      5-min Rain = 0
KTAS 022241Z 17014KT 34/16 A2998 RMK A01 T03350155  RH  034%=      5-min Rain = 0
KTAS 022242Z 18010KT 33/15 A2998 RMK A01 T03320153  RH  034%=      5-min Rain = 0
KTAS 022243Z 17007KT 33/15 A2998 RMK A01 T03300153  RH  035%=      5-min Rain = 0
KTAS 022244Z 16007KT 33/16 A2998 RMK A01 T03300155  RH  035%=      5-min Rain = 0
KTAS 022245Z 19011KT 33/16 A2997 RMK A01 T03310159  RH  036%=      5-min Rain = 0
KTAS 022246Z 17011KT 33/16 A2998 RMK A01 T03340157  RH  035%=      5-min Rain = 0
KTAS 022247Z 15009KT 34/16 A2998 RMK A01 T03380160  RH  034%=      5-min Rain = 0
KTAS 022248Z 16012KT 34/16 A2998 RMK A01 T03430158  RH  033%=      5-min Rain = 0
KTAS 022249Z 16011KT 34/16 A2998 RMK A01 T03420155  RH  033%=      5-min Rain = 0
KTAS 022250Z 17011KT 34/16 A2998 RMK A01 T03430157  RH  033%=      5-min Rain = 0
KTAS 022251Z 17011KT 35/16 A2998 RMK A01 T03450157  RH  033%=      5-min Rain = 0
KTAS 022252Z 16009KT 35/16 A2998 RMK A01 T03450156  RH  032%=      5-min Rain = 0
KTAS 022253Z 17011KT 35/16 A2998 RMK A01 T03450156  RH  032%=      5-min Rain = 0
KTAS 022254Z 16010KT 34/16 A2997 RMK A01 T03430155  RH  032%=      5-min Rain = 0
KTAS 022255Z 15010KT 34/16 A2997 RMK A01 T03430155  RH  032%=      5-min Rain = 0
KTAS 022256Z 12012KT 34/16 A2997 RMK A01 T03430157  RH  033%=      5-min Rain = 0
KTAS 022257Z 13010KT 34/16 A2997 RMK A01 T03430156  RH  033%=      5-min Rain = 0
KTAS 022258Z 14008KT 34/16 A2997 RMK A01 T03420156  RH  033%=      5-min Rain = 0
KTAS 022259Z 13006KT 34/16 A2997 RMK A01 T03410155  RH  033%=      5-min Rain = 0
KTAS 022300Z 15006KT 34/16 A2997 RMK A01 T03410156  RH  033%=      5-min Rain = 0
KTAS 022301Z 14006KT 34/16 A2997 RMK A01 T03420157  RH  033%=      5-min Rain = 0
KTAS 022302Z 14007KT 34/16 A2997 RMK A01 T03430158  RH  033%=      5-min Rain = 0
KTAS 022303Z 14009KT 34/16 A2997 RMK A01 T03430157  RH  033%=      5-min Rain = 0
KTAS 022304Z 15011KT 34/16 A2997 RMK A01 T03430158  RH  033%=      5-min Rain = 0
KTAS 022305Z 15011KT 34/16 A2997 RMK A01 T03440158  RH  033%=      5-min Rain = 0
KTAS 022306Z 17009KT 34/16 A2997 RMK A01 T03440159  RH  033%=      5-min Rain = 0
KTAS 022307Z 17008KT 35/16 A2997 RMK A01 T03450159  RH  033%=      5-min Rain = 0
KTAS 022308Z 15008KT 35/16 A2997 RMK A01 T03460160  RH  033%=      5-min Rain = 0
KTAS 022309Z 16007KT 35/16 A2997 RMK A01 T03470161  RH  033%=      5-min Rain = 0
KTAS 022310Z 13008G13KT 35/16 A2997 RMK A01 T03470160  RH  033%=      5-min Rain = 0
KTAS 022311Z 16010KT 35/16 A2997 RMK A01 T03470159  RH  033%=      5-min Rain = 0
KTAS 022312Z 14009KT 35/16 A2997 RMK A01 T03460157  RH  032%=      5-min Rain = 0
KTAS 022313Z 12009KT 35/16 A2997 RMK A01 T03450158  RH  033%=      5-min Rain = 0
KTAS 022314Z 12006KT 34/16 A2997 RMK A01 T03430158  RH  033%=      5-min Rain = 0
KTAS 022315Z 13008KT 34/16 A2997 RMK A01 T03430160  RH  034%=      5-min Rain = 0
KTAS 022316Z 13014KT 34/16 A2997 RMK A01 T03440159  RH  033%=      5-min Rain = 0
KTAS 022317Z 16010KT 34/16 A2997 RMK A01 T03420159  RH  033%=      5-min Rain = 0
KTAS 022318Z 15011KT 34/16 A2997 RMK A01 T03440160  RH  034%=      5-min Rain = 0
KTAS 022319Z 15006KT 34/16 A2997 RMK A01 T03440159  RH  033%=      5-min Rain = 0
KTAS 022320Z 14009KT 34/16 A2997 RMK A01 T03430158  RH  033%=      5-min Rain = 0
KTAS 022321Z 12007KT 34/16 A2997 RMK A01 T03430160  RH  033%=      5-min Rain = 0
KTAS 022322Z 12006KT 34/16 A2996 RMK A01 T03430162  RH  034%=      5-min Rain = 0
KTAS 022323Z 13010KT 35/16 A2996 RMK A01 T03450163  RH  034%=      5-min Rain = 0
KTAS 022324Z 13011KT 35/16 A2996 RMK A01 T03460159  RH  033%=      5-min Rain = 0
KTAS 022325Z 14009KT 34/16 A2996 RMK A01 T03440157  RH  033%=      5-min Rain = 0
KTAS 022326Z 14011KT 34/16 A2996 RMK A01 T03440158  RH  033%=      5-min Rain = 0
KTAS 022327Z 13011KT 34/16 A2996 RMK A01 T03440158  RH  033%=      5-min Rain = 0
KTAS 022328Z 13008KT 34/16 A2996 RMK A01 T03430159  RH  033%=      5-min Rain = 0
KTAS 022329Z 14005KT 34/16 A2996 RMK A01 T03430155  RH  033%=      5-min Rain = 0
KTAS 022330Z 16006KT 34/16 A2996 RMK A01 T03420157  RH  033%=      5-min Rain = 0
KTAS 022331Z 14004KT 34/16 A2996 RMK A01 T03420160  RH  034%=      5-min Rain = 0
KTAS 022332Z 14005G10KT 35/16 A2996 RMK A01 T03450162  RH  034%=      5-min Rain = 0
KTAS 022333Z 16009KT 35/16 A2996 RMK A01 T03460159  RH  033%=      5-min Rain = 0
KTAS 022334Z 18007KT 35/16 A2996 RMK A01 T03470158  RH  032%=      5-min Rain = 0
KTAS 022335Z 17006KT 35/16 A2996 RMK A01 T03490156  RH  032%=      5-min Rain = 0
KTAS 022336Z 19008KT 35/16 A2996 RMK A01 T03500158  RH  032%=      5-min Rain = 0
KTAS 022337Z 16008KT 35/16 A2996 RMK A01 T03500156  RH  031%=      5-min Rain = 0
KTAS 022338Z 14009G14KT 35/16 A2996 RMK A01 T03500155  RH  031%=      5-min Rain = 0
KTAS 022339Z 14012KT 35/16 A2996 RMK A01 T03480155  RH  032%=      5-min Rain = 0
KTAS 022340Z 13009KT 35/16 A2996 RMK A01 T03460156  RH  032%=      5-min Rain = 0
KTAS 022341Z 13012KT 35/16 A2996 RMK A01 T03460157  RH  032%=      5-min Rain = 0
KTAS 022342Z 13014KT 35/16 A2995 RMK A01 T03450155  RH  032%=      5-min Rain = 0
KTAS 022343Z 13016KT 34/15 A2995 RMK A01 T03440152  RH  032%=      5-min Rain = 0
KTAS 022344Z 13012KT 34/15 A2995 RMK A01 T03420151  RH  032%=      5-min Rain = 0
KTAS 022345Z 13014KT 34/15 A2995 RMK A01 T03420152  RH  032%=      5-min Rain = 0
KTAS 022346Z 13011KT 34/15 A2995 RMK A01 T03410151  RH  032%=      5-min Rain = 0
KTAS 022347Z 14011KT 34/15 A2995 RMK A01 T03410154  RH  033%=      5-min Rain = 0
KTAS 022348Z 14012KT 34/15 A2995 RMK A01 T03430152  RH  032%=      5-min Rain = 0
KTAS 022349Z 15010KT 34/15 A2995 RMK A01 T03440152  RH  032%=      5-min Rain = 0
KTAS 022350Z 16009KT 34/15 A2995 RMK A01 T03440152  RH  032%=      5-min Rain = 0
KTAS 022351Z 16011KT 35/15 A2995 RMK A01 T03450150  RH  031%=      5-min Rain = 0
KTAS 022352Z 15008KT 34/15 A2995 RMK A01 T03440150  RH  031%=      5-min Rain = 0
KTAS 022353Z 13008G13KT 34/15 A2995 RMK A01 T03440150  RH  031%=      5-min Rain = 0
KTAS 022354Z 15011KT 34/15 A2995 RMK A01 T03440149  RH  031%=      5-min Rain = 0
KTAS 022355Z 16008KT 34/15 A2995 RMK A01 T03440149  RH  031%=      5-min Rain = 0
KTAS 022356Z 16009KT 34/15 A2995 RMK A01 T03440148  RH  031%=      5-min Rain = 0
KTAS 022357Z 16014KT 34/15 A2995 RMK A01 T03440147  RH  031%=      5-min Rain = 0
KTAS 022358Z 16014KT 34/15 A2995 RMK A01 T03420145  RH  031%=      5-min Rain = 0
KTAS 022359Z 16014KT 34/15 A2995 RMK A01 T03420147  RH  031%=      5-min Rain = 0
KTAS 030000Z 15008KT 34/15 A2995 RMK A01 T03420146  RH  031%=      5-min Rain = 0
KTAS 030001Z 15008KT 34/15 A2995 RMK A01 T03430146  RH  031%=      5-min Rain = 0
KTAS 030002Z 16010KT 34/15 A2995 RMK A01 T03430147  RH  031%=      5-min Rain = 0
KTAS 030003Z 16009KT 34/15 A2995 RMK A01 T03430147  RH  031%=      5-min Rain = 0
KTAS 030004Z 14008KT 34/15 A2995 RMK A01 T03440147  RH  031%=      5-min Rain = 0
KTAS 030005Z 13009KT 35/15 A2995 RMK A01 T03450149  RH  031%=      5-min Rain = 0
KTAS 030006Z 15007KT 35/15 A2995 RMK A01 T03450152  RH  031%=      5-min Rain = 0
KTAS 030007Z 14009KT 35/15 A2995 RMK A01 T03460148  RH  031%=      5-min Rain = 0
KTAS 030008Z 16009KT 35/15 A2995 RMK A01 T03450145  RH  030%=      5-min Rain = 0
KTAS 030009Z 16009KT 34/15 A2995 RMK A01 T03430146  RH  031%=      5-min Rain = 0
KTAS 030010Z 15009KT 34/15 A2995 RMK A01 T03400145  RH  031%=      5-min Rain = 0
KTAS 030011Z 13011G17KT 34/15 A2995 RMK A01 T03380148  RH  032%=      5-min Rain = 0
KTAS 030012Z 12015G20KT 34/15 A2995 RMK A01 T03360152  RH  033%=      5-min Rain = 0
KTAS 030013Z 13015KT 34/16 A2995 RMK A01 T03360156  RH  034%=      5-min Rain = 0
KTAS 030014Z 13013KT 34/16 A2995 RMK A01 T03360155  RH  034%=      5-min Rain = 0
KTAS 030015Z 12010KT 33/16 A2995 RMK A01 T03340156  RH  034%=      5-min Rain = 0
KTAS 030016Z 11011G16KT 33/16 A2995 RMK A01 T03330159  RH  035%=      5-min Rain = 0
KTAS 030017Z 13013KT 33/16 A2995 RMK A01 T03310158  RH  036%=      5-min Rain = 0
KTAS 030018Z 13010KT 33/16 A2995 RMK A01 T03290159  RH  036%=      5-min Rain = 0
KTAS 030019Z 12009KT 33/16 A2995 RMK A01 T03280161  RH  037%=      5-min Rain = 0
KTAS 030020Z 12010KT 33/16 A2995 RMK A01 T03300161  RH  036%=      5-min Rain = 0
KTAS 030021Z 13011KT 33/16 A2995 RMK A01 T03330160  RH  035%=      5-min Rain = 0
KTAS 030022Z 13012KT 34/16 A2995 RMK A01 T03350160  RH  035%=      5-min Rain = 0
KTAS 030023Z 13012KT 34/16 A2995 RMK A01 T03360162  RH  035%=      5-min Rain = 0
KTAS 030024Z 14015G20KT 34/16 A2996 RMK A01 T03350161  RH  035%=      5-min Rain = 0
KTAS 030025Z 13019KT 33/17 A2996 RMK A01 T03330171  RH  038%=      5-min Rain = 0
KTAS 030026Z 13016KT 33/18 A2996 RMK A01 T03280182  RH  042%=      5-min Rain = 0
KTAS 030027Z 13013KT 32/18 A2996 RMK A01 T03240183  RH  043%=      5-min Rain = 0
KTAS 030028Z 13016G21KT 32/18 A2996 RMK A01 T03220182  RH  043%=      5-min Rain = 0
KTAS 030029Z 12019KT 32/18 A2996 RMK A01 T03200182  RH  044%=      5-min Rain = 0
KTAS 030030Z 13018KT 32/18 A2996 RMK A01 T03180183  RH  045%=      5-min Rain = 0
KTAS 030031Z 14018KT 32/18 A2996 RMK A01 T03170183  RH  045%=      5-min Rain = 0
KTAS 030032Z 13016KT 32/18 A2996 RMK A01 T03170183  RH  045%=      5-min Rain = 0
KTAS 030033Z 13019KT 32/18 A2996 RMK A01 T03160183  RH  045%=      5-min Rain = 0
KTAS 030034Z 13018KT 32/18 A2996 RMK A01 T03150182  RH  045%=      5-min Rain = 0
KTAS 030035Z 13022KT 31/18 A2996 RMK A01 T03140182  RH  045%=      5-min Rain = 0
KTAS 030036Z 13020KT 31/18 A2996 RMK A01 T03130182  RH  046%=      5-min Rain = 0
KTAS 030037Z 13021KT 31/18 A2996 RMK A01 T03130181  RH  045%=      5-min Rain = 0
KTAS 030038Z 13020KT 31/18 A2996 RMK A01 T03140182  RH  045%=      5-min Rain = 0
KTAS 030039Z 13015KT 31/18 A2996 RMK A01 T03130181  RH  045%=      5-min Rain = 0
KTAS 030040Z 13013G18KT 31/18 A2996 RMK A01 T03130182  RH  046%=      5-min Rain = 0
KTAS 030041Z 13016G23KT 31/18 A2996 RMK A01 T03120182  RH  046%=      5-min Rain = 0
KTAS 030042Z 13016G21KT 31/18 A2997 RMK A01 T03110181  RH  046%=      5-min Rain = 0
KTAS 030043Z 13018G23KT 31/18 A2997 RMK A01 T03090180  RH  046%=      5-min Rain = 0
KTAS 030044Z 13019KT 31/18 A2997 RMK A01 T03080180  RH  046%=      5-min Rain = 0
KTAS 030045Z 12019KT 31/18 A2997 RMK A01 T03070180  RH  047%=      5-min Rain = 0
KTAS 030046Z 12016G21KT 31/18 A2997 RMK A01 T03060180  RH  047%=      5-min Rain = 0
KTAS 030047Z 13017G22KT 31/18 A2997 RMK A01 T03050179  RH  047%=      5-min Rain = 0
KTAS 030048Z 13018G24KT 31/18 A2997 RMK A01 T03050178  RH  047%=      5-min Rain = 0
KTAS 030049Z 13017KT 31/18 A2997 RMK A01 T03050177  RH  047%=      5-min Rain = 0
KTAS 030050Z 13017KT 31/18 A2997 RMK A01 T03050178  RH  047%=      5-min Rain = 0
KTAS 030051Z 13016KT 30/18 A2997 RMK A01 T03040178  RH  047%=      5-min Rain = 0
KTAS 030052Z 13017KT 30/18 A2997 RMK A01 T03040178  RH  047%=      5-min Rain = 0
KTAS 030053Z 13017KT 30/18 A2997 RMK A01 T03040178  RH  047%=      5-min Rain = 0
KTAS 030054Z 13015KT 30/18 A2997 RMK A01 T03040178  RH  047%=      5-min Rain = 0
KTAS 030055Z 13018KT 30/18 A2997 RMK A01 T03040179  RH  047%=      5-min Rain = 0
KTAS 030056Z 13020KT 30/18 A2997 RMK A01 T03040179  RH  047%=      5-min Rain = 0
KTAS 030057Z 13015KT 31/18 A2997 RMK A01 T03050180  RH  047%=      5-min Rain = 0
KTAS 030058Z 13014G19KT 31/18 A2997 RMK A01 T03060180  RH  047%=      5-min Rain = 0
KTAS 030059Z 13018G23KT 31/18 A2997 RMK A01 T03060181  RH  047%=      5-min Rain = 0
KTAS 030100Z 14017KT 31/18 A2997 RMK A01 T03060180  RH  047%=      5-min Rain = 0
KTAS 030101Z 14015KT 31/18 A2997 RMK A01 T03060180  RH  047%=      5-min Rain = 0
KTAS 030102Z 13017G22KT 31/18 A2997 RMK A01 T03050180  RH  047%=      5-min Rain = 0
KTAS 030103Z 14016KT 31/18 A2997 RMK A01 T03050180  RH  047%=      5-min Rain = 0
KTAS 030104Z 13014G19KT 30/18 A2997 RMK A01 T03040180  RH  047%=      5-min Rain = 0
KTAS 030105Z 14017KT 31/18 A2997 RMK A01 T03050180  RH  047%=      5-min Rain = 0
KTAS 030106Z 14017KT 31/18 A2997 RMK A01 T03060180  RH  047%=      5-min Rain = 0
KTAS 030107Z 14013KT 31/18 A2997 RMK A01 T03060181  RH  047%=      5-min Rain = 0
KTAS 030108Z 14016KT 31/18 A2997 RMK A01 T03060181  RH  047%=      5-min Rain = 0
KTAS 030109Z 14016KT 31/18 A2997 RMK A01 T03050181  RH  047%=      5-min Rain = 0
KTAS 030110Z 13015KT 31/18 A2997 RMK A01 T03050182  RH  048%=      5-min Rain = 0
KTAS 030111Z 14015KT 30/18 A2997 RMK A01 T03040182  RH  048%=      5-min Rain = 0
KTAS 030112Z 14017G22KT 30/18 A2997 RMK A01 T03040181  RH  048%=      5-min Rain = 0
KTAS 030113Z 14017KT 30/18 A2997 RMK A01 T03040180  RH  047%=      5-min Rain = 0
KTAS 030114Z 14016KT 30/18 A2997 RMK A01 T03040181  RH  048%=      5-min Rain = 0
KTAS 030115Z 13015KT 31/18 A2997 RMK A01 T03050181  RH  048%=      5-min Rain = 0
KTAS 030116Z 14016KT 30/18 A2997 RMK A01 T03040181  RH  048%=      5-min Rain = 0
KTAS 030117Z 14016KT 30/18 A2997 RMK A01 T03040181  RH  048%=      5-min Rain = 0
KTAS 030118Z 14016KT 30/18 A2997 RMK A01 T03040181  RH  048%=      5-min Rain = 0
KTAS 030119Z 14015KT 30/18 A2997 RMK A01 T03040182  RH  048%=      5-min Rain = 0
KTAS 030120Z 14015KT 30/18 A2997 RMK A01 T03040182  RH  048%=      5-min Rain = 0
KTAS 030121Z 14015KT 30/18 A2997 RMK A01 T03040182  RH  048%=      5-min Rain = 0
KTAS 030122Z 14014KT 30/18 A2997 RMK A01 T03030182  RH  048%=      5-min Rain = 0
KTAS 030123Z 14016KT 30/18 A2997 RMK A01 T03030181  RH  048%=      5-min Rain = 0
KTAS 030124Z 14013KT 30/18 A2997 RMK A01 T03030182  RH  048%=      5-min Rain = 0
KTAS 030125Z 14011KT 30/18 A2997 RMK A01 T03030182  RH  048%=      5-min Rain = 0
KTAS 030126Z 14010KT 30/18 A2997 RMK A01 T03030183  RH  049%=      5-min Rain = 0
KTAS 030127Z 14011KT 30/18 A2997 RMK A01 T03030183  RH  049%=      5-min Rain = 0
KTAS 030128Z 14011KT 30/18 A2997 RMK A01 T03020182  RH  048%=      5-min Rain = 0
KTAS 030129Z 14014KT 30/18 A2997 RMK A01 T03020181  RH  048%=      5-min Rain = 0
KTAS 030130Z 14012KT 30/18 A2997 RMK A01 T03020181  RH  048%=      5-min Rain = 0
KTAS 030131Z 14010KT 30/18 A2997 RMK A01 T03010181  RH  049%=      5-min Rain = 0
KTAS 030132Z 15012KT 30/18 A2997 RMK A01 T03010181  RH  049%=      5-min Rain = 0
KTAS 030133Z 15013KT 30/18 A2997 RMK A01 T03000181  RH  049%=      5-min Rain = 0
KTAS 030134Z 15012KT 30/18 A2997 RMK A01 T03010180  RH  048%=      5-min Rain = 0
KTAS 030135Z 16016G21KT 30/18 A2997 RMK A01 T03010177  RH  047%=      5-min Rain = 0
KTAS 030136Z 15017KT 30/18 A2997 RMK A01 T03020175  RH  047%=      5-min Rain = 0
KTAS 030137Z 15015KT 30/18 A2998 RMK A01 T03020175  RH  047%=      5-min Rain = 0
KTAS 030138Z 15018KT 30/18 A2998 RMK A01 T03010175  RH  047%=      5-min Rain = 0
KTAS 030139Z 15020G25KT 30/17 A2998 RMK A01 T03010174  RH  047%=      5-min Rain = 0
KTAS 030140Z 15022KT 30/17 A2998 RMK A01 T03000174  RH  047%=      5-min Rain = 0
KTAS 030141Z 15019KT 30/17 A2998 RMK A01 T03000174  RH  047%=      5-min Rain = 0
KTAS 030142Z 15017KT 30/17 A2998 RMK A01 T02990174  RH  047%=      5-min Rain = 0
KTAS 030143Z 15016KT 30/17 A2998 RMK A01 T02990174  RH  047%=      5-min Rain = 0
KTAS 030144Z 14017KT 30/17 A2998 RMK A01 T02990174  RH  047%=      5-min Rain = 0
KTAS 030145Z 14017KT 30/17 A2998 RMK A01 T02980174  RH  047%=      5-min Rain = 0
KTAS 030146Z 15015KT 30/17 A2999 RMK A01 T02980174  RH  047%=      5-min Rain = 0
KTAS 030147Z 15016KT 30/17 A2999 RMK A01 T02980174  RH  047%=      5-min Rain = 0
KTAS 030148Z 16014KT 30/17 A2999 RMK A01 T02980174  RH  047%=      5-min Rain = 0
KTAS 030149Z 15016G22KT 30/17 A2999 RMK A01 T02970173  RH  047%=      5-min Rain = 0
KTAS 030150Z 16018KT 30/17 A2999 RMK A01 T02970173  RH  047%=      5-min Rain = 0
KTAS 030151Z 16019G24KT 30/17 A2999 RMK A01 T02970172  RH  047%=      5-min Rain = 0
KTAS 030152Z 15019KT 30/17 A2999 RMK A01 T02970172  RH  047%=      5-min Rain = 0
KTAS 030153Z 15017KT 30/17 A2999 RMK A01 T02960172  RH  047%=      5-min Rain = 0
KTAS 030154Z 15015KT 30/17 A2999 RMK A01 T02960173  RH  048%=      5-min Rain = 0
KTAS 030155Z 15015KT 30/17 A2999 RMK A01 T02950174  RH  048%=      5-min Rain = 0
KTAS 030156Z 15014KT 30/18 A2999 RMK A01 T02950175  RH  048%=      5-min Rain = 0
KTAS 030157Z 15013KT 30/18 A2999 RMK A01 T02950175  RH  048%=      5-min Rain = 0
KTAS 030158Z 15014KT 29/18 A2999 RMK A01 T02940175  RH  049%=      5-min Rain = 0
KTAS 030159Z 15013KT 29/18 A2999 RMK A01 T02940175  RH  049%=      5-min Rain = 0
KTAS 030200Z 15012KT 29/18 A2999 RMK A01 T02940175  RH  049%=      5-min Rain = 0
KTAS 030201Z 15013KT 29/18 A2999 RMK A01 T02930175  RH  049%=      5-min Rain = 0
KTAS 030202Z 15013KT 29/18 A2999 RMK A01 T02930175  RH  049%=      5-min Rain = 0
KTAS 030203Z 14012KT 29/18 A2999 RMK A01 T02930175  RH  049%=      5-min Rain = 0
KTAS 030204Z 15012KT 29/18 A2999 RMK A01 T02930175  RH  049%=      5-min Rain = 0
KTAS 030205Z 14012KT 29/18 A2999 RMK A01 T02920175  RH  049%=      5-min Rain = 0
KTAS 030206Z 14014KT 29/18 A2999 RMK A01 T02920176  RH  049%=      5-min Rain = 0
KTAS 030207Z 14013KT 29/18 A2999 RMK A01 T02920176  RH  050%=      5-min Rain = 0
KTAS 030208Z 14011KT 29/18 A2999 RMK A01 T02920176  RH  050%=      5-min Rain = 0
KTAS 030209Z 14012KT 29/18 A2999 RMK A01 T02910176  RH  050%=      5-min Rain = 0
KTAS 030210Z 15012KT 29/18 A2999 RMK A01 T02910177  RH  050%=      5-min Rain = 0
KTAS 030211Z 14011KT 29/18 A2999 RMK A01 T02910177  RH  050%=      5-min Rain = 0
KTAS 030212Z 14011KT 29/18 A2999 RMK A01 T02910177  RH  050%=      5-min Rain = 0
KTAS 030213Z 14009KT 29/18 A2999 RMK A01 T02910178  RH  050%=      5-min Rain = 0
KTAS 030214Z 14009KT 29/18 A2999 RMK A01 T02900178  RH  051%=      5-min Rain = 0
KTAS 030215Z 14011KT 29/18 A2999 RMK A01 T02900178  RH  051%=      5-min Rain = 0
KTAS 030216Z 14010KT 29/18 A30 RMK A01 T02890179  RH  051%=      5-min Rain = 0
KTAS 030217Z 14012KT 29/18 A30 RMK A01 T02890179  RH  051%=      5-min Rain = 0
KTAS 030218Z 14010KT 29/18 A30 RMK A01 T02900180  RH  051%=      5-min Rain = 0
KTAS 030219Z 13009KT 29/18 A30 RMK A01 T02900180  RH  051%=      5-min Rain = 0
KTAS 030220Z 13013KT 29/18 A30 RMK A01 T02900180  RH  052%=      5-min Rain = 0
KTAS 030221Z 13010KT 29/18 A30 RMK A01 T02900180  RH  052%=      5-min Rain = 0
KTAS 030222Z 13011KT 29/18 A30 RMK A01 T02890180  RH  052%=      5-min Rain = 0
KTAS 030223Z 13009KT 29/18 A30 RMK A01 T02890181  RH  052%=      5-min Rain = 0
KTAS 030224Z 13012KT 29/18 A30 RMK A01 T02890181  RH  052%=      5-min Rain = 0
KTAS 030225Z 13013KT 29/18 A30 RMK A01 T02890181  RH  052%=      5-min Rain = 0
KTAS 030226Z 13014KT 29/18 A30 RMK A01 T02890180  RH  052%=      5-min Rain = 0
KTAS 030227Z 13011KT 29/18 A30 RMK A01 T02890180  RH  052%=      5-min Rain = 0
KTAS 030228Z 13010KT 29/18 A30 RMK A01 T02890181  RH  052%=      5-min Rain = 0
KTAS 030229Z 12013KT 29/18 A30 RMK A01 T02890181  RH  052%=      5-min Rain = 0
KTAS 030230Z 13013KT 29/18 A30 RMK A01 T02890181  RH  052%=      5-min Rain = 0
KTAS 030231Z 13013KT 29/18 A30 RMK A01 T02890181  RH  052%=      5-min Rain = 0
KTAS 030232Z 12011KT 29/18 A30 RMK A01 T02890181  RH  052%=      5-min Rain = 0
KTAS 030233Z 13013KT 29/18 A30 RMK A01 T02890181  RH  052%=      5-min Rain = 0
KTAS 030234Z 14011KT 29/18 A30 RMK A01 T02890182  RH  052%=      5-min Rain = 0
KTAS 030235Z 13012KT 29/18 A30 RMK A01 T02880182  RH  053%=      5-min Rain = 0
KTAS 030236Z 13013KT 29/18 A30 RMK A01 T02880182  RH  053%=      5-min Rain = 0
KTAS 030237Z 13011KT 29/18 A30 RMK A01 T02880182  RH  053%=      5-min Rain = 0
KTAS 030238Z 14011KT 29/18 A30 RMK A01 T02880182  RH  053%=      5-min Rain = 0
KTAS 030239Z 13011KT 29/18 A30 RMK A01 T02880182  RH  053%=      5-min Rain = 0
KTAS 030240Z 14012KT 29/18 A30 RMK A01 T02880182  RH  053%=      5-min Rain = 0
KTAS 030241Z 13010KT 29/18 A30 RMK A01 T02880182  RH  053%=      5-min Rain = 0
KTAS 030242Z 14012KT 29/18 A30 RMK A01 T02870182  RH  053%=      5-min Rain = 0
KTAS 030243Z 14009KT 29/18 A30 RMK A01 T02870182  RH  053%=      5-min Rain = 0
KTAS 030244Z 13012G17KT 29/18 A30 RMK A01 T02870182  RH  053%=      5-min Rain = 0
KTAS 030245Z 14013KT 29/18 A30 RMK A01 T02870181  RH  053%=      5-min Rain = 0
KTAS 030246Z 14013KT 29/18 A30 RMK A01 T02880181  RH  053%=      5-min Rain = 0
KTAS 030247Z 13010KT 29/18 A30 RMK A01 T02880182  RH  053%=      5-min Rain = 0
KTAS 030248Z 14009KT 29/18 A30 RMK A01 T02870182  RH  053%=      5-min Rain = 0
KTAS 030249Z 13009KT 29/18 A3001 RMK A01 T02870182  RH  053%=      5-min Rain = 0
KTAS 030250Z 13010KT 29/18 A3001 RMK A01 T02870183  RH  053%=      5-min Rain = 0
KTAS 030251Z 12009KT 29/18 A3001 RMK A01 T02860183  RH  053%=      5-min Rain = 0
KTAS 030252Z 13011KT 29/18 A3001 RMK A01 T02860183  RH  054%=      5-min Rain = 0
KTAS 030253Z 13010KT 29/18 A3001 RMK A01 T02860183  RH  054%=      5-min Rain = 0
KTAS 030254Z 13009KT 29/18 A3001 RMK A01 T02860184  RH  054%=      5-min Rain = 0
KTAS 030255Z 12010KT 29/18 A3001 RMK A01 T02850184  RH  054%=      5-min Rain = 0
KTAS 030256Z 13012KT 29/18 A3001 RMK A01 T02860184  RH  054%=      5-min Rain = 0
KTAS 030257Z 13011KT 29/18 A3001 RMK A01 T02860184  RH  054%=      5-min Rain = 0
KTAS 030258Z 13009KT 29/19 A3001 RMK A01 T02860185  RH  054%=      5-min Rain = 0
KTAS 030259Z 13009KT 29/19 A3001 RMK A01 T02850185  RH  055%=      5-min Rain = 0
KTAS 030300Z 13011KT 29/19 A3001 RMK A01 T02850185  RH  055%=      5-min Rain = 0
KTAS 030301Z 13010KT 29/19 A3001 RMK A01 T02850185  RH  055%=      5-min Rain = 0
KTAS 030302Z 13011KT 29/19 A3001 RMK A01 T02850186  RH  055%=      5-min Rain = 0
KTAS 030303Z 13011KT 29/19 A3001 RMK A01 T02850186  RH  055%=      5-min Rain = 0
KTAS 030304Z 13012KT 29/19 A3001 RMK A01 T02850186  RH  055%=      5-min Rain = 0
KTAS 030305Z 13011KT 29/19 A3001 RMK A01 T02850186  RH  055%=      5-min Rain = 0
KTAS 030306Z 14011G16KT 29/19 A3001 RMK A01 T02850186  RH  055%=      5-min Rain = 0
KTAS 030307Z 13012KT 29/19 A3001 RMK A01 T02850186  RH  055%=      5-min Rain = 0
KTAS 030308Z 13011KT 29/19 A3001 RMK A01 T02850186  RH  055%=      5-min Rain = 0
KTAS 030309Z 13012KT 29/19 A3001 RMK A01 T02850186  RH  055%=      5-min Rain = 0
KTAS 030310Z 13011KT 28/19 A3001 RMK A01 T02840186  RH  055%=      5-min Rain = 0
KTAS 030311Z 13010KT 28/19 A3001 RMK A01 T02840186  RH  055%=      5-min Rain = 0
KTAS 030312Z 13015KT 28/19 A3001 RMK A01 T02840186  RH  055%=      5-min Rain = 0
KTAS 030313Z 13014KT 28/19 A3001 RMK A01 T02840186  RH  055%=      5-min Rain = 0
KTAS 030314Z 12010KT 29/19 A3001 RMK A01 T02850186  RH  055%=      5-min Rain = 0
KTAS 030315Z 13010KT 28/19 A3002 RMK A01 T02840186  RH  055%=      5-min Rain = 0
KTAS 030316Z 13013KT 28/19 A3002 RMK A01 T02840186  RH  055%=      5-min Rain = 0
KTAS 030317Z 13011KT 28/19 A3002 RMK A01 T02840186  RH  055%=      5-min Rain = 0
KTAS 030318Z 13010KT 28/19 A3002 RMK A01 T02840186  RH  055%=      5-min Rain = 0
KTAS 030319Z 13010KT 28/19 A3002 RMK A01 T02840186  RH  055%=      5-min Rain = 0
KTAS 030320Z 13011KT 28/19 A3002 RMK A01 T02840186  RH  056%=      5-min Rain = 0
KTAS 030321Z 14011KT 28/19 A3002 RMK A01 T02840186  RH  055%=      5-min Rain = 0
KTAS 030322Z 13011KT 28/19 A3002 RMK A01 T02840186  RH  055%=      5-min Rain = 0
KTAS 030323Z 13010KT 28/19 A3002 RMK A01 T02840186  RH  055%=      5-min Rain = 0
KTAS 030324Z 13010KT 28/19 A3002 RMK A01 T02840186  RH  055%=      5-min Rain = 0
KTAS 030325Z 13009KT 28/19 A3002 RMK A01 T02830186  RH  056%=      5-min Rain = 0
KTAS 030326Z 13010KT 28/19 A3002 RMK A01 T02830186  RH  056%=      5-min Rain = 0
KTAS 030327Z 13009KT 28/19 A3002 RMK A01 T02830186  RH  056%=      5-min Rain = 0
KTAS 030328Z 13009KT 28/19 A3002 RMK A01 T02830186  RH  056%=      5-min Rain = 0
KTAS 030329Z 13010KT 28/19 A3002 RMK A01 T02820186  RH  056%=      5-min Rain = 0
KTAS 030330Z 13010KT 28/19 A3002 RMK A01 T02820186  RH  056%=      5-min Rain = 0
KTAS 030331Z 13008KT 28/19 A3003 RMK A01 T02820186  RH  056%=      5-min Rain = 0
KTAS 030332Z 13010KT 28/19 A3003 RMK A01 T02820186  RH  056%=      5-min Rain = 0
KTAS 030333Z 13010KT 28/19 A3003 RMK A01 T02820186  RH  056%=      5-min Rain = 0
KTAS 030334Z 14011KT 28/19 A3003 RMK A01 T02820186  RH  056%=      5-min Rain = 0
KTAS 030335Z 13010KT 28/19 A3003 RMK A01 T02820186  RH  056%=      5-min Rain = 0
KTAS 030336Z 14010KT 28/19 A3003 RMK A01 T02820186  RH  056%=      5-min Rain = 0
KTAS 030337Z 13009KT 28/19 A3003 RMK A01 T02820186  RH  056%=      5-min Rain = 0
KTAS 030338Z 14010G15KT 28/19 A3003 RMK A01 T02820186  RH  056%=      5-min Rain = 0
KTAS 030339Z 13011KT 28/19 A3003 RMK A01 T02820185  RH  056%=      5-min Rain = 0
KTAS 030340Z 13011KT 28/19 A3003 RMK A01 T02820185  RH  056%=      5-min Rain = 0
KTAS 030341Z 13011KT 28/19 A3003 RMK A01 T02820186  RH  056%=      5-min Rain = 0
KTAS 030342Z 13011KT 28/19 A3003 RMK A01 T02820186  RH  056%=      5-min Rain = 0
KTAS 030343Z 13010KT 28/19 A3003 RMK A01 T02820186  RH  056%=      5-min Rain = 0
KTAS 030344Z 14009KT 28/19 A3003 RMK A01 T02820185  RH  056%=      5-min Rain = 0
KTAS 030345Z 12010KT 28/19 A3003 RMK A01 T02820185  RH  056%=      5-min Rain = 0
KTAS 030346Z 13009KT 28/19 A3003 RMK A01 T02810185  RH  056%=      5-min Rain = 0
KTAS 030347Z 12009KT 28/19 A3003 RMK A01 T02810185  RH  056%=      5-min Rain = 0
KTAS 030348Z 14010KT 28/19 A3003 RMK A01 T02810185  RH  056%=      5-min Rain = 0
KTAS 030349Z 13010KT 28/19 A3003 RMK A01 T02810185  RH  056%=      5-min Rain = 0
KTAS 030350Z 12010KT 28/18 A3003 RMK A01 T02800184  RH  056%=      5-min Rain = 0
KTAS 030351Z 13009KT 28/18 A3003 RMK A01 T02800184  RH  056%=      5-min Rain = 0
KTAS 030352Z 13011KT 28/18 A3004 RMK A01 T02800184  RH  056%=      5-min Rain = 0
KTAS 030353Z 13009KT 28/18 A3004 RMK A01 T02800184  RH  056%=      5-min Rain = 0
KTAS 030354Z 13010KT 28/18 A3004 RMK A01 T02800184  RH  056%=      5-min Rain = 0
KTAS 030355Z 13008KT 28/18 A3004 RMK A01 T02800184  RH  056%=      5-min Rain = 0
KTAS 030356Z 13009KT 28/18 A3004 RMK A01 T02790184  RH  056%=      5-min Rain = 0
KTAS 030357Z 13009KT 28/18 A3004 RMK A01 T02790184  RH  056%=      5-min Rain = 0
KTAS 030358Z 13009KT 28/18 A3004 RMK A01 T02780184  RH  056%=      5-min Rain = 0
KTAS 030359Z 13008KT 28/18 A3004 RMK A01 T02780183  RH  056%=      5-min Rain = 0
KTAS 030400Z 13010KT 28/18 A3004 RMK A01 T02780183  RH  056%=      5-min Rain = 0
KTAS 030401Z 13010KT 28/18 A3004 RMK A01 T02780183  RH  056%=      5-min Rain = 0
KTAS 030402Z 13009KT 28/18 A3004 RMK A01 T02790183  RH  056%=      5-min Rain = 0
KTAS 030403Z 13008KT 28/18 A3004 RMK A01 T02780183  RH  056%=      5-min Rain = 0
KTAS 030404Z 13009KT 28/18 A3004 RMK A01 T02780183  RH  056%=      5-min Rain = 0
KTAS 030405Z 13009KT 28/18 A3004 RMK A01 T02780183  RH  056%=      5-min Rain = 0
KTAS 030406Z 13008KT 28/18 A3004 RMK A01 T02780183  RH  056%=      5-min Rain = 0
KTAS 030407Z 12009KT 28/18 A3004 RMK A01 T02780183  RH  056%=      5-min Rain = 0
KTAS 030408Z 13008KT 28/18 A3004 RMK A01 T02780182  RH  056%=      5-min Rain = 0
KTAS 030409Z 12009KT 28/18 A3004 RMK A01 T02770182  RH  056%=      5-min Rain = 0
KTAS 030410Z 12008KT 28/18 A3004 RMK A01 T02770183  RH  056%=      5-min Rain = 0
KTAS 030411Z 13008KT 28/18 A3005 RMK A01 T02760182  RH  057%=      5-min Rain = 0
KTAS 030412Z 12009KT 28/18 A3005 RMK A01 T02760182  RH  056%=      5-min Rain = 0
KTAS 030413Z 13009KT 28/18 A3005 RMK A01 T02760182  RH  056%=      5-min Rain = 0
KTAS 030414Z 13009KT 28/18 A3005 RMK A01 T02760182  RH  056%=      5-min Rain = 0
KTAS 030415Z 13009KT 28/18 A3005 RMK A01 T02760182  RH  056%=      5-min Rain = 0
KTAS 030416Z 12007KT 28/18 A3005 RMK A01 T02760182  RH  057%=      5-min Rain = 0
KTAS 030417Z 12009KT 28/18 A3005 RMK A01 T02760182  RH  057%=      5-min Rain = 0
KTAS 030418Z 12009KT 28/18 A3005 RMK A01 T02760182  RH  057%=      5-min Rain = 0
KTAS 030419Z 12008KT 28/18 A3005 RMK A01 T02760182  RH  057%=      5-min Rain = 0
KTAS 030420Z 12010KT 28/18 A3005 RMK A01 T02760182  RH  057%=      5-min Rain = 0
KTAS 030421Z 12010KT 28/18 A3005 RMK A01 T02760181  RH  056%=      5-min Rain = 0
KTAS 030422Z 12010KT 28/18 A3005 RMK A01 T02760181  RH  056%=      5-min Rain = 0
KTAS 030423Z 12008KT 28/18 A3005 RMK A01 T02760182  RH  056%=      5-min Rain = 0
KTAS 030424Z 12010KT 28/18 A3005 RMK A01 T02760181  RH  056%=      5-min Rain = 0
KTAS 030425Z 12008KT 28/18 A3005 RMK A01 T02760182  RH  057%=      5-min Rain = 0
KTAS 030426Z 12009KT 28/18 A3005 RMK A01 T02760182  RH  057%=      5-min Rain = 0
KTAS 030427Z 12008KT 28/18 A3005 RMK A01 T02760182  RH  057%=      5-min Rain = 0
KTAS 030428Z 12008KT 28/18 A3005 RMK A01 T02750182  RH  057%=      5-min Rain = 0
KTAS 030429Z 12008KT 27/18 A3005 RMK A01 T02740182  RH  057%=      5-min Rain = 0
KTAS 030430Z 12007KT 27/18 A3005 RMK A01 T02740182  RH  057%=      5-min Rain = 0
KTAS 030431Z 12007KT 27/18 A3005 RMK A01 T02730182  RH  058%=      5-min Rain = 0
KTAS 030432Z 12008KT 27/18 A3005 RMK A01 T02720182  RH  058%=      5-min Rain = 0
KTAS 030433Z 12008KT 27/18 A3005 RMK A01 T02720181  RH  057%=      5-min Rain = 0
KTAS 030434Z 12008KT 27/18 A3005 RMK A01 T02730181  RH  057%=      5-min Rain = 0
KTAS 030435Z 12007KT 27/18 A3005 RMK A01 T02720181  RH  057%=      5-min Rain = 0
KTAS 030436Z 12007KT 27/18 A3005 RMK A01 T02720181  RH  057%=      5-min Rain = 0
KTAS 030437Z 11006KT 27/18 A3005 RMK A01 T02720181  RH  057%=      5-min Rain = 0
KTAS 030438Z 12006KT 27/18 A3005 RMK A01 T02720181  RH  058%=      5-min Rain = 0
KTAS 030439Z 12006KT 27/18 A3005 RMK A01 T02710181  RH  058%=      5-min Rain = 0
KTAS 030440Z 12006KT 27/18 A3005 RMK A01 T02700181  RH  058%=      5-min Rain = 0
KTAS 030441Z 11006KT 27/18 A3005 RMK A01 T02690181  RH  058%=      5-min Rain = 0
KTAS 030442Z 11005KT 27/18 A3005 RMK A01 T02690181  RH  059%=      5-min Rain = 0
KTAS 030443Z 11006KT 27/18 A3005 RMK A01 T02680181  RH  059%=      5-min Rain = 0
KTAS 030444Z 12005KT 27/18 A3005 RMK A01 T02680181  RH  059%=      5-min Rain = 0
KTAS 030445Z 11006KT 27/18 A3005 RMK A01 T02680181  RH  059%=      5-min Rain = 0
KTAS 030446Z 11006KT 27/18 A3006 RMK A01 T02680181  RH  059%=      5-min Rain = 0
KTAS 030447Z 12005KT 27/18 A3005 RMK A01 T02670181  RH  059%=      5-min Rain = 0
KTAS 030448Z 12006KT 27/18 A3006 RMK A01 T02670181  RH  059%=      5-min Rain = 0
KTAS 030449Z 12006KT 27/18 A3006 RMK A01 T02680181  RH  059%=      5-min Rain = 0
KTAS 030450Z 12007KT 27/18 A3006 RMK A01 T02680181  RH  059%=      5-min Rain = 0
KTAS 030451Z 12005KT 27/18 A3006 RMK A01 T02680181  RH  059%=      5-min Rain = 0
KTAS 030452Z 11005KT 27/18 A3006 RMK A01 T02680181  RH  059%=      5-min Rain = 0
KTAS 030453Z 11006KT 27/18 A3006 RMK A01 T02670181  RH  059%=      5-min Rain = 0
KTAS 030454Z 11006KT 27/18 A3006 RMK A01 T02670181  RH  059%=      5-min Rain = 0
KTAS 030455Z 11006KT 27/18 A3006 RMK A01 T02660181  RH  059%=      5-min Rain = 0
KTAS 030456Z 11006KT 27/18 A3006 RMK A01 T02660180  RH  059%=      5-min Rain = 0
KTAS 030457Z 11006KT 27/18 A3006 RMK A01 T02670180  RH  059%=      5-min Rain = 0
KTAS 030458Z 10006KT 27/18 A3006 RMK A01 T02660180  RH  059%=      5-min Rain = 0
KTAS 030459Z 11005KT 27/18 A3006 RMK A01 T02660181  RH  059%=      5-min Rain = 0

Page generated in 0.1197 seconds.